<?xml version="1.0" encoding="UTF-8" standalone="no" ?>
<gpx xmlns="http://www.topografix.com/GPX/1/1" xmlns:xsi="http://www.w3.org/2001/XMLSchema-instance" xsi:schemaLocation="http://www.topografix.com/GPX/1/1 http://www.topografix.com/GPX/1/1/gpx.xsd" version="1.1" creator="VisuGPX - https://www.visugpx.com">
  <metadata>
    <name>marche nordique du samedi 18/02/2017</name>
    <desc><![CDATA[au départ salle des sport du Perray en Yvelines à 9h15 et à pied en direction du foyer rural d'Auffargis et retour par les Vindrins]]></desc>
  </metadata>
  <trk>
    <name><![CDATA[Marche nordique du18/02/2017 départ à 09:17:26]]></name>
    <desc><![CDATA[Pour celles ou ceux qui ne sont pas en vacances et qui désirent
se dégourdir les jambes, je propose un parcours
de marche nordique au départ de la salle des sports à 9h15
à pied en direction du foyer rural d'Auffargis et retour par
les Vindrins.

Bonne journée

Marie-Jo]]></desc>
    <trkseg>
      <trkpt lat="48.6917" lon="1.85459">
        <ele>183.3583984375</ele>
        <time>2017-02-18T08:17:26Z</time>
      </trkpt>
      <trkpt lat="48.69167" lon="1.8547">
        <ele>180.95642089844</ele>
        <time>2017-02-18T08:17:32Z</time>
      </trkpt>
      <trkpt lat="48.69158" lon="1.85488">
        <ele>175.04614257812</ele>
        <time>2017-02-18T08:17:52Z</time>
      </trkpt>
      <trkpt lat="48.69152" lon="1.85506">
        <ele>173.10333251953</ele>
        <time>2017-02-18T08:17:59Z</time>
      </trkpt>
      <trkpt lat="48.69152" lon="1.85528">
        <ele>172.85406494141</ele>
        <time>2017-02-18T08:18:09Z</time>
      </trkpt>
      <trkpt lat="48.69162" lon="1.85544">
        <ele>175.27032470703</ele>
        <time>2017-02-18T08:18:20Z</time>
      </trkpt>
      <trkpt lat="48.69176" lon="1.85548">
        <ele>174.82171630859</ele>
        <time>2017-02-18T08:18:29Z</time>
      </trkpt>
      <trkpt lat="48.69189" lon="1.85553">
        <ele>172.97174072266</ele>
        <time>2017-02-18T08:18:38Z</time>
      </trkpt>
      <trkpt lat="48.69202" lon="1.85559">
        <ele>173.27001953125</ele>
        <time>2017-02-18T08:18:48Z</time>
      </trkpt>
      <trkpt lat="48.69216" lon="1.85562">
        <ele>175.87963867188</ele>
        <time>2017-02-18T08:18:59Z</time>
      </trkpt>
      <trkpt lat="48.69229" lon="1.85572">
        <ele>174.97497558594</ele>
        <time>2017-02-18T08:19:11Z</time>
      </trkpt>
      <trkpt lat="48.69243" lon="1.85569">
        <ele>176.46612548828</ele>
        <time>2017-02-18T08:19:23Z</time>
      </trkpt>
      <trkpt lat="48.69256" lon="1.85569">
        <ele>177.37951660156</ele>
        <time>2017-02-18T08:19:33Z</time>
      </trkpt>
      <trkpt lat="48.6927" lon="1.85573">
        <ele>176.98278808594</ele>
        <time>2017-02-18T08:19:41Z</time>
      </trkpt>
      <trkpt lat="48.69284" lon="1.85577">
        <ele>178.93682861328</ele>
        <time>2017-02-18T08:19:51Z</time>
      </trkpt>
      <trkpt lat="48.69297" lon="1.85583">
        <ele>178.19451904297</ele>
        <time>2017-02-18T08:19:59Z</time>
      </trkpt>
      <trkpt lat="48.6931" lon="1.85591">
        <ele>175.78881835938</ele>
        <time>2017-02-18T08:20:06Z</time>
      </trkpt>
      <trkpt lat="48.69323" lon="1.856">
        <ele>177.13317871094</ele>
        <time>2017-02-18T08:20:17Z</time>
      </trkpt>
      <trkpt lat="48.69333" lon="1.85615">
        <ele>172.33306884766</ele>
        <time>2017-02-18T08:20:30Z</time>
      </trkpt>
      <trkpt lat="48.69337" lon="1.85634">
        <ele>165.88238525391</ele>
        <time>2017-02-18T08:20:49Z</time>
      </trkpt>
      <trkpt lat="48.69349" lon="1.8562">
        <ele>164.43078613281</ele>
        <time>2017-02-18T08:21:06Z</time>
      </trkpt>
      <trkpt lat="48.69341" lon="1.85668">
        <ele>165.99714660645</ele>
        <time>2017-02-18T08:21:30Z</time>
      </trkpt>
      <trkpt lat="48.69362" lon="1.85655">
        <ele>122.52319335938</ele>
        <time>2017-02-18T08:21:35Z</time>
      </trkpt>
      <trkpt lat="48.69369" lon="1.85676">
        <ele>152.75262451172</ele>
        <time>2017-02-18T08:21:43Z</time>
      </trkpt>
      <trkpt lat="48.69378" lon="1.85693">
        <ele>156.92590332031</ele>
        <time>2017-02-18T08:21:51Z</time>
      </trkpt>
      <trkpt lat="48.69392" lon="1.85693">
        <ele>157.72186279297</ele>
        <time>2017-02-18T08:22:02Z</time>
      </trkpt>
      <trkpt lat="48.69406" lon="1.85701">
        <ele>153.27087402344</ele>
        <time>2017-02-18T08:22:13Z</time>
      </trkpt>
      <trkpt lat="48.69419" lon="1.85711">
        <ele>156.32189941406</ele>
        <time>2017-02-18T08:22:21Z</time>
      </trkpt>
      <trkpt lat="48.69434" lon="1.85714">
        <ele>157.40832519531</ele>
        <time>2017-02-18T08:22:30Z</time>
      </trkpt>
      <trkpt lat="48.69446" lon="1.85725">
        <ele>159.43493652344</ele>
        <time>2017-02-18T08:22:39Z</time>
      </trkpt>
      <trkpt lat="48.6946" lon="1.85728">
        <ele>165.712890625</ele>
        <time>2017-02-18T08:22:51Z</time>
      </trkpt>
      <trkpt lat="48.69474" lon="1.85735">
        <ele>165.12805175781</ele>
        <time>2017-02-18T08:23:03Z</time>
      </trkpt>
      <trkpt lat="48.69488" lon="1.85741">
        <ele>162.46423339844</ele>
        <time>2017-02-18T08:23:12Z</time>
      </trkpt>
      <trkpt lat="48.69503" lon="1.85744">
        <ele>165.83746337891</ele>
        <time>2017-02-18T08:23:22Z</time>
      </trkpt>
      <trkpt lat="48.69516" lon="1.85747">
        <ele>166.17584228516</ele>
        <time>2017-02-18T08:23:32Z</time>
      </trkpt>
      <trkpt lat="48.69531" lon="1.85753">
        <ele>162.32019042969</ele>
        <time>2017-02-18T08:23:43Z</time>
      </trkpt>
      <trkpt lat="48.69541" lon="1.85767">
        <ele>161.42749023438</ele>
        <time>2017-02-18T08:24:17Z</time>
      </trkpt>
      <trkpt lat="48.69543" lon="1.85791">
        <ele>165.22564697266</ele>
        <time>2017-02-18T08:24:22Z</time>
      </trkpt>
      <trkpt lat="48.69544" lon="1.85813">
        <ele>159.84045410156</ele>
        <time>2017-02-18T08:24:29Z</time>
      </trkpt>
      <trkpt lat="48.69551" lon="1.8583">
        <ele>158.24780273438</ele>
        <time>2017-02-18T08:24:37Z</time>
      </trkpt>
      <trkpt lat="48.69555" lon="1.85852">
        <ele>154.58843994141</ele>
        <time>2017-02-18T08:24:47Z</time>
      </trkpt>
      <trkpt lat="48.69554" lon="1.85872">
        <ele>162.37628173828</ele>
        <time>2017-02-18T08:24:54Z</time>
      </trkpt>
      <trkpt lat="48.6955" lon="1.85892">
        <ele>161.22601318359</ele>
        <time>2017-02-18T08:25:03Z</time>
      </trkpt>
      <trkpt lat="48.6955" lon="1.85915">
        <ele>162.14660644531</ele>
        <time>2017-02-18T08:25:13Z</time>
      </trkpt>
      <trkpt lat="48.69546" lon="1.85936">
        <ele>163.99554443359</ele>
        <time>2017-02-18T08:25:24Z</time>
      </trkpt>
      <trkpt lat="48.69544" lon="1.85956">
        <ele>163.74005126953</ele>
        <time>2017-02-18T08:25:34Z</time>
      </trkpt>
      <trkpt lat="48.69537" lon="1.85974">
        <ele>169.86187744141</ele>
        <time>2017-02-18T08:25:42Z</time>
      </trkpt>
      <trkpt lat="48.6954" lon="1.85996">
        <ele>169.09210205078</ele>
        <time>2017-02-18T08:25:56Z</time>
      </trkpt>
      <trkpt lat="48.69541" lon="1.86017">
        <ele>168.17828369141</ele>
        <time>2017-02-18T08:26:05Z</time>
      </trkpt>
      <trkpt lat="48.69542" lon="1.86038">
        <ele>165.19213867188</ele>
        <time>2017-02-18T08:26:14Z</time>
      </trkpt>
      <trkpt lat="48.69546" lon="1.86059">
        <ele>166.29791259766</ele>
        <time>2017-02-18T08:26:30Z</time>
      </trkpt>
      <trkpt lat="48.69543" lon="1.86079">
        <ele>163.54614257812</ele>
        <time>2017-02-18T08:26:39Z</time>
      </trkpt>
      <trkpt lat="48.69536" lon="1.86097">
        <ele>163.95343017578</ele>
        <time>2017-02-18T08:26:46Z</time>
      </trkpt>
      <trkpt lat="48.69533" lon="1.86118">
        <ele>163.47955322266</ele>
        <time>2017-02-18T08:26:58Z</time>
      </trkpt>
      <trkpt lat="48.69523" lon="1.86132">
        <ele>163.17358398438</ele>
        <time>2017-02-18T08:27:07Z</time>
      </trkpt>
      <trkpt lat="48.69513" lon="1.86146">
        <ele>161.00775146484</ele>
        <time>2017-02-18T08:27:16Z</time>
      </trkpt>
      <trkpt lat="48.69503" lon="1.86162">
        <ele>160.42529296875</ele>
        <time>2017-02-18T08:27:27Z</time>
      </trkpt>
      <trkpt lat="48.69491" lon="1.86173">
        <ele>161.66259765625</ele>
        <time>2017-02-18T08:27:35Z</time>
      </trkpt>
      <trkpt lat="48.6948" lon="1.86188">
        <ele>162.83996582031</ele>
        <time>2017-02-18T08:27:47Z</time>
      </trkpt>
      <trkpt lat="48.69468" lon="1.86199">
        <ele>159.03131103516</ele>
        <time>2017-02-18T08:27:57Z</time>
      </trkpt>
      <trkpt lat="48.69456" lon="1.86208">
        <ele>159.54376220703</ele>
        <time>2017-02-18T08:28:08Z</time>
      </trkpt>
      <trkpt lat="48.69443" lon="1.8622">
        <ele>157.77801513672</ele>
        <time>2017-02-18T08:28:19Z</time>
      </trkpt>
      <trkpt lat="48.69435" lon="1.86237">
        <ele>155.91229248047</ele>
        <time>2017-02-18T08:28:27Z</time>
      </trkpt>
      <trkpt lat="48.6943" lon="1.86258">
        <ele>162.32647705078</ele>
        <time>2017-02-18T08:28:41Z</time>
      </trkpt>
      <trkpt lat="48.6942" lon="1.86275">
        <ele>159.60375976562</ele>
        <time>2017-02-18T08:28:53Z</time>
      </trkpt>
      <trkpt lat="48.69412" lon="1.86296">
        <ele>155.33129882812</ele>
        <time>2017-02-18T08:29:05Z</time>
      </trkpt>
      <trkpt lat="48.69406" lon="1.86316">
        <ele>152.85717773438</ele>
        <time>2017-02-18T08:29:14Z</time>
      </trkpt>
      <trkpt lat="48.69401" lon="1.86336">
        <ele>154.48522949219</ele>
        <time>2017-02-18T08:29:23Z</time>
      </trkpt>
      <trkpt lat="48.694" lon="1.86358">
        <ele>160.87506103516</ele>
        <time>2017-02-18T08:29:32Z</time>
      </trkpt>
      <trkpt lat="48.694" lon="1.8638">
        <ele>166.84130859375</ele>
        <time>2017-02-18T08:29:43Z</time>
      </trkpt>
      <trkpt lat="48.69395" lon="1.86399">
        <ele>172.21020507812</ele>
        <time>2017-02-18T08:29:54Z</time>
      </trkpt>
      <trkpt lat="48.69386" lon="1.86414">
        <ele>170.63464355469</ele>
        <time>2017-02-18T08:30:06Z</time>
      </trkpt>
      <trkpt lat="48.69395" lon="1.86431">
        <ele>169.49786376953</ele>
        <time>2017-02-18T08:30:24Z</time>
      </trkpt>
      <trkpt lat="48.69409" lon="1.86432">
        <ele>166.005859375</ele>
        <time>2017-02-18T08:30:35Z</time>
      </trkpt>
      <trkpt lat="48.69423" lon="1.86435">
        <ele>167.44958496094</ele>
        <time>2017-02-18T08:30:44Z</time>
      </trkpt>
      <trkpt lat="48.69437" lon="1.8644">
        <ele>167.05279541016</ele>
        <time>2017-02-18T08:30:56Z</time>
      </trkpt>
      <trkpt lat="48.69453" lon="1.86439">
        <ele>163.90850830078</ele>
        <time>2017-02-18T08:31:05Z</time>
      </trkpt>
      <trkpt lat="48.69466" lon="1.86445">
        <ele>162.58569335938</ele>
        <time>2017-02-18T08:31:17Z</time>
      </trkpt>
      <trkpt lat="48.6948" lon="1.8645">
        <ele>162.89709472656</ele>
        <time>2017-02-18T08:31:24Z</time>
      </trkpt>
      <trkpt lat="48.69493" lon="1.86458">
        <ele>159.80206298828</ele>
        <time>2017-02-18T08:31:35Z</time>
      </trkpt>
      <trkpt lat="48.69507" lon="1.86463">
        <ele>166.69049072266</ele>
        <time>2017-02-18T08:31:46Z</time>
      </trkpt>
      <trkpt lat="48.69512" lon="1.86483">
        <ele>170.10662841797</ele>
        <time>2017-02-18T08:32:00Z</time>
      </trkpt>
      <trkpt lat="48.6952" lon="1.86499">
        <ele>163.7705078125</ele>
        <time>2017-02-18T08:32:52Z</time>
      </trkpt>
      <trkpt lat="48.69533" lon="1.8651">
        <ele>162.09381103516</ele>
        <time>2017-02-18T08:33:02Z</time>
      </trkpt>
      <trkpt lat="48.69526" lon="1.86527">
        <ele>160.05932617188</ele>
        <time>2017-02-18T08:33:24Z</time>
      </trkpt>
      <trkpt lat="48.69512" lon="1.86522">
        <ele>159.45129394531</ele>
        <time>2017-02-18T08:33:32Z</time>
      </trkpt>
      <trkpt lat="48.69497" lon="1.86517">
        <ele>160.53796386719</ele>
        <time>2017-02-18T08:33:43Z</time>
      </trkpt>
      <trkpt lat="48.69483" lon="1.86517">
        <ele>158.32775878906</ele>
        <time>2017-02-18T08:33:51Z</time>
      </trkpt>
      <trkpt lat="48.69478" lon="1.86537">
        <ele>160.12219238281</ele>
        <time>2017-02-18T08:34:00Z</time>
      </trkpt>
      <trkpt lat="48.69474" lon="1.86557">
        <ele>153.99713134766</ele>
        <time>2017-02-18T08:34:14Z</time>
      </trkpt>
      <trkpt lat="48.69465" lon="1.86574">
        <ele>156.3203125</ele>
        <time>2017-02-18T08:34:25Z</time>
      </trkpt>
      <trkpt lat="48.69452" lon="1.86592">
        <ele>163.58148193359</ele>
        <time>2017-02-18T08:34:36Z</time>
      </trkpt>
      <trkpt lat="48.69448" lon="1.86613">
        <ele>159.36291503906</ele>
        <time>2017-02-18T08:34:46Z</time>
      </trkpt>
      <trkpt lat="48.69437" lon="1.86637">
        <ele>156.35705566406</ele>
        <time>2017-02-18T08:34:55Z</time>
      </trkpt>
      <trkpt lat="48.69431" lon="1.86655">
        <ele>157.30767822266</ele>
        <time>2017-02-18T08:35:05Z</time>
      </trkpt>
      <trkpt lat="48.69432" lon="1.86677">
        <ele>156.00482177734</ele>
        <time>2017-02-18T08:35:16Z</time>
      </trkpt>
      <trkpt lat="48.69427" lon="1.86697">
        <ele>158.79962158203</ele>
        <time>2017-02-18T08:35:28Z</time>
      </trkpt>
      <trkpt lat="48.69421" lon="1.86715">
        <ele>159.86529541016</ele>
        <time>2017-02-18T08:35:34Z</time>
      </trkpt>
      <trkpt lat="48.69418" lon="1.86736">
        <ele>151.82623291016</ele>
        <time>2017-02-18T08:35:47Z</time>
      </trkpt>
      <trkpt lat="48.69412" lon="1.86755">
        <ele>148.26086425781</ele>
        <time>2017-02-18T08:35:56Z</time>
      </trkpt>
      <trkpt lat="48.69419" lon="1.86773">
        <ele>157.29205322266</ele>
        <time>2017-02-18T08:36:11Z</time>
      </trkpt>
      <trkpt lat="48.69428" lon="1.86788">
        <ele>158.28576660156</ele>
        <time>2017-02-18T08:36:22Z</time>
      </trkpt>
      <trkpt lat="48.69436" lon="1.86805">
        <ele>160.42156982422</ele>
        <time>2017-02-18T08:36:33Z</time>
      </trkpt>
      <trkpt lat="48.69439" lon="1.86826">
        <ele>159.64514160156</ele>
        <time>2017-02-18T08:36:42Z</time>
      </trkpt>
      <trkpt lat="48.69445" lon="1.86846">
        <ele>159.80407714844</ele>
        <time>2017-02-18T08:36:53Z</time>
      </trkpt>
      <trkpt lat="48.69453" lon="1.86864">
        <ele>158.28454589844</ele>
        <time>2017-02-18T08:37:02Z</time>
      </trkpt>
      <trkpt lat="48.69461" lon="1.86882">
        <ele>156.58502197266</ele>
        <time>2017-02-18T08:37:14Z</time>
      </trkpt>
      <trkpt lat="48.69468" lon="1.869">
        <ele>156.21148681641</ele>
        <time>2017-02-18T08:37:24Z</time>
      </trkpt>
      <trkpt lat="48.69473" lon="1.8692">
        <ele>154.97424316406</ele>
        <time>2017-02-18T08:37:31Z</time>
      </trkpt>
      <trkpt lat="48.69481" lon="1.86938">
        <ele>151.24816894531</ele>
        <time>2017-02-18T08:37:40Z</time>
      </trkpt>
      <trkpt lat="48.69491" lon="1.86954">
        <ele>154.86163330078</ele>
        <time>2017-02-18T08:37:49Z</time>
      </trkpt>
      <trkpt lat="48.695" lon="1.8697">
        <ele>158.28717041016</ele>
        <time>2017-02-18T08:38:02Z</time>
      </trkpt>
      <trkpt lat="48.69499" lon="1.86992">
        <ele>158.83551025391</ele>
        <time>2017-02-18T08:38:19Z</time>
      </trkpt>
      <trkpt lat="48.69509" lon="1.8701">
        <ele>159.84332275391</ele>
        <time>2017-02-18T08:38:34Z</time>
      </trkpt>
      <trkpt lat="48.69508" lon="1.87032">
        <ele>156.72344970703</ele>
        <time>2017-02-18T08:38:45Z</time>
      </trkpt>
      <trkpt lat="48.69512" lon="1.87052">
        <ele>158.99407958984</ele>
        <time>2017-02-18T08:38:59Z</time>
      </trkpt>
      <trkpt lat="48.69523" lon="1.87063">
        <ele>158.67736816406</ele>
        <time>2017-02-18T08:39:09Z</time>
      </trkpt>
      <trkpt lat="48.6953" lon="1.87081">
        <ele>154.66876220703</ele>
        <time>2017-02-18T08:39:24Z</time>
      </trkpt>
      <trkpt lat="48.69534" lon="1.87102">
        <ele>150.98211669922</ele>
        <time>2017-02-18T08:39:37Z</time>
      </trkpt>
      <trkpt lat="48.69539" lon="1.87121">
        <ele>153.53991699219</ele>
        <time>2017-02-18T08:39:50Z</time>
      </trkpt>
      <trkpt lat="48.69546" lon="1.87141">
        <ele>152.82824707031</ele>
        <time>2017-02-18T08:40:00Z</time>
      </trkpt>
      <trkpt lat="48.69551" lon="1.8716">
        <ele>152.75689697266</ele>
        <time>2017-02-18T08:40:09Z</time>
      </trkpt>
      <trkpt lat="48.69548" lon="1.87182">
        <ele>152.57531738281</ele>
        <time>2017-02-18T08:40:16Z</time>
      </trkpt>
      <trkpt lat="48.69551" lon="1.87202">
        <ele>153.072265625</ele>
        <time>2017-02-18T08:40:23Z</time>
      </trkpt>
      <trkpt lat="48.69555" lon="1.87223">
        <ele>154.17333984375</ele>
        <time>2017-02-18T08:40:31Z</time>
      </trkpt>
      <trkpt lat="48.69562" lon="1.87242">
        <ele>152.91821289062</ele>
        <time>2017-02-18T08:40:44Z</time>
      </trkpt>
      <trkpt lat="48.6957" lon="1.87259">
        <ele>154.88745117188</ele>
        <time>2017-02-18T08:40:55Z</time>
      </trkpt>
      <trkpt lat="48.69576" lon="1.8728">
        <ele>159.12359619141</ele>
        <time>2017-02-18T08:41:04Z</time>
      </trkpt>
      <trkpt lat="48.69568" lon="1.87298">
        <ele>161.56555175781</ele>
        <time>2017-02-18T08:41:14Z</time>
      </trkpt>
      <trkpt lat="48.69556" lon="1.8731">
        <ele>163.30108642578</ele>
        <time>2017-02-18T08:41:23Z</time>
      </trkpt>
      <trkpt lat="48.69546" lon="1.87324">
        <ele>166.95776367188</ele>
        <time>2017-02-18T08:41:35Z</time>
      </trkpt>
      <trkpt lat="48.69547" lon="1.87347">
        <ele>168.71398925781</ele>
        <time>2017-02-18T08:41:45Z</time>
      </trkpt>
      <trkpt lat="48.69555" lon="1.87364">
        <ele>165.298828125</ele>
        <time>2017-02-18T08:41:55Z</time>
      </trkpt>
      <trkpt lat="48.69559" lon="1.87384">
        <ele>164.63952636719</ele>
        <time>2017-02-18T08:42:11Z</time>
      </trkpt>
      <trkpt lat="48.6956" lon="1.87408">
        <ele>161.95654296875</ele>
        <time>2017-02-18T08:42:37Z</time>
      </trkpt>
      <trkpt lat="48.69555" lon="1.87434">
        <ele>164.90856933594</ele>
        <time>2017-02-18T08:42:43Z</time>
      </trkpt>
      <trkpt lat="48.69555" lon="1.87456">
        <ele>162.81964111328</ele>
        <time>2017-02-18T08:42:54Z</time>
      </trkpt>
      <trkpt lat="48.69554" lon="1.87478">
        <ele>160.90539550781</ele>
        <time>2017-02-18T08:43:03Z</time>
      </trkpt>
      <trkpt lat="48.69561" lon="1.87498">
        <ele>161.68658447266</ele>
        <time>2017-02-18T08:43:14Z</time>
      </trkpt>
      <trkpt lat="48.69574" lon="1.87507">
        <ele>166.30541992188</ele>
        <time>2017-02-18T08:43:24Z</time>
      </trkpt>
      <trkpt lat="48.69588" lon="1.8751">
        <ele>165.39923095703</ele>
        <time>2017-02-18T08:43:33Z</time>
      </trkpt>
      <trkpt lat="48.69601" lon="1.87513">
        <ele>159.81164550781</ele>
        <time>2017-02-18T08:43:43Z</time>
      </trkpt>
      <trkpt lat="48.69614" lon="1.87514">
        <ele>160.40246582031</ele>
        <time>2017-02-18T08:43:54Z</time>
      </trkpt>
      <trkpt lat="48.69629" lon="1.87513">
        <ele>163.56726074219</ele>
        <time>2017-02-18T08:44:08Z</time>
      </trkpt>
      <trkpt lat="48.69641" lon="1.87522">
        <ele>167.34814453125</ele>
        <time>2017-02-18T08:44:16Z</time>
      </trkpt>
      <trkpt lat="48.69647" lon="1.8754">
        <ele>170.28369140625</ele>
        <time>2017-02-18T08:44:34Z</time>
      </trkpt>
      <trkpt lat="48.6965" lon="1.87561">
        <ele>168.86468505859</ele>
        <time>2017-02-18T08:44:43Z</time>
      </trkpt>
      <trkpt lat="48.69652" lon="1.87582">
        <ele>166.82293701172</ele>
        <time>2017-02-18T08:44:53Z</time>
      </trkpt>
      <trkpt lat="48.69649" lon="1.87603">
        <ele>165.48461914062</ele>
        <time>2017-02-18T08:45:04Z</time>
      </trkpt>
      <trkpt lat="48.69645" lon="1.87624">
        <ele>166.65417480469</ele>
        <time>2017-02-18T08:45:14Z</time>
      </trkpt>
      <trkpt lat="48.69655" lon="1.87639">
        <ele>167.38122558594</ele>
        <time>2017-02-18T08:45:25Z</time>
      </trkpt>
      <trkpt lat="48.69665" lon="1.87652">
        <ele>167.65783691406</ele>
        <time>2017-02-18T08:45:36Z</time>
      </trkpt>
      <trkpt lat="48.69674" lon="1.87669">
        <ele>171.22814941406</ele>
        <time>2017-02-18T08:45:51Z</time>
      </trkpt>
      <trkpt lat="48.69686" lon="1.87681">
        <ele>172.21307373047</ele>
        <time>2017-02-18T08:46:05Z</time>
      </trkpt>
      <trkpt lat="48.69699" lon="1.87686">
        <ele>171.36633300781</ele>
        <time>2017-02-18T08:46:15Z</time>
      </trkpt>
      <trkpt lat="48.69708" lon="1.87703">
        <ele>168.47991943359</ele>
        <time>2017-02-18T08:46:23Z</time>
      </trkpt>
      <trkpt lat="48.69717" lon="1.8772">
        <ele>168.78149414062</ele>
        <time>2017-02-18T08:46:35Z</time>
      </trkpt>
      <trkpt lat="48.69728" lon="1.87733">
        <ele>167.52954101562</ele>
        <time>2017-02-18T08:46:44Z</time>
      </trkpt>
      <trkpt lat="48.69741" lon="1.87744">
        <ele>166.10412597656</ele>
        <time>2017-02-18T08:46:51Z</time>
      </trkpt>
      <trkpt lat="48.69752" lon="1.87757">
        <ele>161.15484619141</ele>
        <time>2017-02-18T08:47:04Z</time>
      </trkpt>
      <trkpt lat="48.69762" lon="1.87772">
        <ele>156.95190429688</ele>
        <time>2017-02-18T08:47:14Z</time>
      </trkpt>
      <trkpt lat="48.69774" lon="1.87785">
        <ele>154.87628173828</ele>
        <time>2017-02-18T08:47:27Z</time>
      </trkpt>
      <trkpt lat="48.69788" lon="1.87782">
        <ele>150.52996826172</ele>
        <time>2017-02-18T08:47:37Z</time>
      </trkpt>
      <trkpt lat="48.69801" lon="1.87793">
        <ele>145.68975830078</ele>
        <time>2017-02-18T08:47:47Z</time>
      </trkpt>
      <trkpt lat="48.69804" lon="1.87814">
        <ele>143.55084228516</ele>
        <time>2017-02-18T08:47:56Z</time>
      </trkpt>
      <trkpt lat="48.69818" lon="1.87815">
        <ele>140.94073486328</ele>
        <time>2017-02-18T08:48:08Z</time>
      </trkpt>
      <trkpt lat="48.69828" lon="1.87829">
        <ele>135.26910400391</ele>
        <time>2017-02-18T08:48:19Z</time>
      </trkpt>
      <trkpt lat="48.69837" lon="1.87845">
        <ele>138.69458007812</ele>
        <time>2017-02-18T08:48:32Z</time>
      </trkpt>
      <trkpt lat="48.69839" lon="1.87866">
        <ele>143.88452148438</ele>
        <time>2017-02-18T08:48:41Z</time>
      </trkpt>
      <trkpt lat="48.69841" lon="1.87889">
        <ele>144.267578125</ele>
        <time>2017-02-18T08:48:50Z</time>
      </trkpt>
      <trkpt lat="48.69843" lon="1.87911">
        <ele>143.47247314453</ele>
        <time>2017-02-18T08:48:57Z</time>
      </trkpt>
      <trkpt lat="48.69849" lon="1.87931">
        <ele>147.11450195312</ele>
        <time>2017-02-18T08:49:05Z</time>
      </trkpt>
      <trkpt lat="48.69853" lon="1.87951">
        <ele>144.31237792969</ele>
        <time>2017-02-18T08:49:17Z</time>
      </trkpt>
      <trkpt lat="48.69861" lon="1.87969">
        <ele>145.50268554688</ele>
        <time>2017-02-18T08:49:28Z</time>
      </trkpt>
      <trkpt lat="48.69875" lon="1.87977">
        <ele>144.49871826172</ele>
        <time>2017-02-18T08:49:39Z</time>
      </trkpt>
      <trkpt lat="48.69886" lon="1.8799">
        <ele>145.84442138672</ele>
        <time>2017-02-18T08:49:46Z</time>
      </trkpt>
      <trkpt lat="48.69887" lon="1.88011">
        <ele>144.94659423828</ele>
        <time>2017-02-18T08:49:53Z</time>
      </trkpt>
      <trkpt lat="48.69896" lon="1.88028">
        <ele>144.20306396484</ele>
        <time>2017-02-18T08:50:02Z</time>
      </trkpt>
      <trkpt lat="48.699" lon="1.88049">
        <ele>144.26446533203</ele>
        <time>2017-02-18T08:50:11Z</time>
      </trkpt>
      <trkpt lat="48.69907" lon="1.88067">
        <ele>144.13507080078</ele>
        <time>2017-02-18T08:50:20Z</time>
      </trkpt>
      <trkpt lat="48.69916" lon="1.88084">
        <ele>143.11340332031</ele>
        <time>2017-02-18T08:50:29Z</time>
      </trkpt>
      <trkpt lat="48.69927" lon="1.88097">
        <ele>148.14562988281</ele>
        <time>2017-02-18T08:50:38Z</time>
      </trkpt>
      <trkpt lat="48.69939" lon="1.88107">
        <ele>146.65881347656</ele>
        <time>2017-02-18T08:50:48Z</time>
      </trkpt>
      <trkpt lat="48.69952" lon="1.88119">
        <ele>143.24517822266</ele>
        <time>2017-02-18T08:50:56Z</time>
      </trkpt>
      <trkpt lat="48.69964" lon="1.88128">
        <ele>141.80706787109</ele>
        <time>2017-02-18T08:51:06Z</time>
      </trkpt>
      <trkpt lat="48.69978" lon="1.88128">
        <ele>138.57330322266</ele>
        <time>2017-02-18T08:51:13Z</time>
      </trkpt>
      <trkpt lat="48.6999" lon="1.88137">
        <ele>141.70483398438</ele>
        <time>2017-02-18T08:51:22Z</time>
      </trkpt>
      <trkpt lat="48.7" lon="1.88152">
        <ele>134.38256835938</ele>
        <time>2017-02-18T08:51:36Z</time>
      </trkpt>
      <trkpt lat="48.70007" lon="1.8817">
        <ele>131.79565429688</ele>
        <time>2017-02-18T08:51:46Z</time>
      </trkpt>
      <trkpt lat="48.70013" lon="1.8819">
        <ele>135.10833740234</ele>
        <time>2017-02-18T08:51:55Z</time>
      </trkpt>
      <trkpt lat="48.70017" lon="1.8821">
        <ele>137.84692382812</ele>
        <time>2017-02-18T08:52:05Z</time>
      </trkpt>
      <trkpt lat="48.70026" lon="1.88226">
        <ele>135.525390625</ele>
        <time>2017-02-18T08:52:14Z</time>
      </trkpt>
      <trkpt lat="48.70031" lon="1.88246">
        <ele>135.20947265625</ele>
        <time>2017-02-18T08:52:22Z</time>
      </trkpt>
      <trkpt lat="48.70033" lon="1.88267">
        <ele>137.37542724609</ele>
        <time>2017-02-18T08:52:31Z</time>
      </trkpt>
      <trkpt lat="48.70041" lon="1.88286">
        <ele>132.65106201172</ele>
        <time>2017-02-18T08:52:43Z</time>
      </trkpt>
      <trkpt lat="48.70044" lon="1.88307">
        <ele>134.49377441406</ele>
        <time>2017-02-18T08:52:50Z</time>
      </trkpt>
      <trkpt lat="48.70043" lon="1.88329">
        <ele>137.21435546875</ele>
        <time>2017-02-18T08:52:56Z</time>
      </trkpt>
      <trkpt lat="48.70054" lon="1.88342">
        <ele>136.95172119141</ele>
        <time>2017-02-18T08:53:08Z</time>
      </trkpt>
      <trkpt lat="48.70066" lon="1.88354">
        <ele>138.75482177734</ele>
        <time>2017-02-18T08:53:19Z</time>
      </trkpt>
      <trkpt lat="48.70068" lon="1.88374">
        <ele>134.45306396484</ele>
        <time>2017-02-18T08:53:29Z</time>
      </trkpt>
      <trkpt lat="48.70077" lon="1.88391">
        <ele>135.27813720703</ele>
        <time>2017-02-18T08:53:38Z</time>
      </trkpt>
      <trkpt lat="48.70088" lon="1.88403">
        <ele>130.09832763672</ele>
        <time>2017-02-18T08:53:48Z</time>
      </trkpt>
      <trkpt lat="48.70097" lon="1.88419">
        <ele>132.6650390625</ele>
        <time>2017-02-18T08:53:55Z</time>
      </trkpt>
      <trkpt lat="48.70106" lon="1.88438">
        <ele>136.05157470703</ele>
        <time>2017-02-18T08:54:15Z</time>
      </trkpt>
      <trkpt lat="48.70109" lon="1.88458">
        <ele>139.66400146484</ele>
        <time>2017-02-18T08:54:26Z</time>
      </trkpt>
      <trkpt lat="48.70106" lon="1.88479">
        <ele>145.23333740234</ele>
        <time>2017-02-18T08:54:35Z</time>
      </trkpt>
      <trkpt lat="48.70114" lon="1.88497">
        <ele>145.1787109375</ele>
        <time>2017-02-18T08:54:43Z</time>
      </trkpt>
      <trkpt lat="48.70121" lon="1.88514">
        <ele>147.90942382812</ele>
        <time>2017-02-18T08:54:52Z</time>
      </trkpt>
      <trkpt lat="48.70132" lon="1.88527">
        <ele>143.92047119141</ele>
        <time>2017-02-18T08:55:08Z</time>
      </trkpt>
      <trkpt lat="48.7014" lon="1.88545">
        <ele>143.03436279297</ele>
        <time>2017-02-18T08:55:16Z</time>
      </trkpt>
      <trkpt lat="48.70138" lon="1.88567">
        <ele>143.50830078125</ele>
        <time>2017-02-18T08:55:28Z</time>
      </trkpt>
      <trkpt lat="48.70138" lon="1.88589">
        <ele>143.78527832031</ele>
        <time>2017-02-18T08:55:37Z</time>
      </trkpt>
      <trkpt lat="48.70134" lon="1.8861">
        <ele>146.78045654297</ele>
        <time>2017-02-18T08:55:47Z</time>
      </trkpt>
      <trkpt lat="48.70131" lon="1.88631">
        <ele>148.15869140625</ele>
        <time>2017-02-18T08:55:55Z</time>
      </trkpt>
      <trkpt lat="48.70138" lon="1.8865">
        <ele>145.71411132812</ele>
        <time>2017-02-18T08:56:06Z</time>
      </trkpt>
      <trkpt lat="48.70136" lon="1.88671">
        <ele>147.64331054688</ele>
        <time>2017-02-18T08:56:19Z</time>
      </trkpt>
      <trkpt lat="48.70133" lon="1.88692">
        <ele>145.23620605469</ele>
        <time>2017-02-18T08:56:29Z</time>
      </trkpt>
      <trkpt lat="48.70147" lon="1.887">
        <ele>147.04290771484</ele>
        <time>2017-02-18T08:56:39Z</time>
      </trkpt>
      <trkpt lat="48.7016" lon="1.88703">
        <ele>145.45074462891</ele>
        <time>2017-02-18T08:56:48Z</time>
      </trkpt>
      <trkpt lat="48.70175" lon="1.8871">
        <ele>140.50378417969</ele>
        <time>2017-02-18T08:56:58Z</time>
      </trkpt>
      <trkpt lat="48.70189" lon="1.88709">
        <ele>142.10125732422</ele>
        <time>2017-02-18T08:57:06Z</time>
      </trkpt>
      <trkpt lat="48.70203" lon="1.88709">
        <ele>146.16345214844</ele>
        <time>2017-02-18T08:57:16Z</time>
      </trkpt>
      <trkpt lat="48.70218" lon="1.88714">
        <ele>145.76159667969</ele>
        <time>2017-02-18T08:57:28Z</time>
      </trkpt>
      <trkpt lat="48.70228" lon="1.88728">
        <ele>144.3125</ele>
        <time>2017-02-18T08:57:41Z</time>
      </trkpt>
      <trkpt lat="48.70228" lon="1.8875">
        <ele>144.11596679688</ele>
        <time>2017-02-18T08:57:50Z</time>
      </trkpt>
      <trkpt lat="48.70232" lon="1.88769">
        <ele>140.92126464844</ele>
        <time>2017-02-18T08:58:01Z</time>
      </trkpt>
      <trkpt lat="48.7023" lon="1.88791">
        <ele>141.33929443359</ele>
        <time>2017-02-18T08:58:09Z</time>
      </trkpt>
      <trkpt lat="48.70228" lon="1.88812">
        <ele>141.32696533203</ele>
        <time>2017-02-18T08:58:19Z</time>
      </trkpt>
      <trkpt lat="48.70228" lon="1.88833">
        <ele>139.45324707031</ele>
        <time>2017-02-18T08:58:28Z</time>
      </trkpt>
      <trkpt lat="48.70232" lon="1.88852">
        <ele>142.21997070312</ele>
        <time>2017-02-18T08:58:37Z</time>
      </trkpt>
      <trkpt lat="48.70239" lon="1.8887">
        <ele>137.85888671875</ele>
        <time>2017-02-18T08:58:47Z</time>
      </trkpt>
      <trkpt lat="48.70234" lon="1.8889">
        <ele>140.04473876953</ele>
        <time>2017-02-18T08:58:54Z</time>
      </trkpt>
      <trkpt lat="48.70229" lon="1.8891">
        <ele>137.14733886719</ele>
        <time>2017-02-18T08:59:02Z</time>
      </trkpt>
      <trkpt lat="48.70227" lon="1.8893">
        <ele>134.68157958984</ele>
        <time>2017-02-18T08:59:12Z</time>
      </trkpt>
      <trkpt lat="48.70226" lon="1.88952">
        <ele>131.22570800781</ele>
        <time>2017-02-18T08:59:22Z</time>
      </trkpt>
      <trkpt lat="48.70238" lon="1.88963">
        <ele>128.3525390625</ele>
        <time>2017-02-18T08:59:33Z</time>
      </trkpt>
      <trkpt lat="48.70241" lon="1.88984">
        <ele>130.52514648438</ele>
        <time>2017-02-18T08:59:43Z</time>
      </trkpt>
      <trkpt lat="48.7023" lon="1.88998">
        <ele>132.71142578125</ele>
        <time>2017-02-18T08:59:51Z</time>
      </trkpt>
      <trkpt lat="48.70223" lon="1.89016">
        <ele>132.84423828125</ele>
        <time>2017-02-18T09:00:02Z</time>
      </trkpt>
      <trkpt lat="48.70219" lon="1.89037">
        <ele>134.97320556641</ele>
        <time>2017-02-18T09:00:10Z</time>
      </trkpt>
      <trkpt lat="48.70215" lon="1.89057">
        <ele>134.66418457031</ele>
        <time>2017-02-18T09:00:18Z</time>
      </trkpt>
      <trkpt lat="48.70219" lon="1.89077">
        <ele>139.68237304688</ele>
        <time>2017-02-18T09:00:26Z</time>
      </trkpt>
      <trkpt lat="48.70207" lon="1.89091">
        <ele>136.32348632812</ele>
        <time>2017-02-18T09:00:33Z</time>
      </trkpt>
      <trkpt lat="48.70211" lon="1.89114">
        <ele>133.00036621094</ele>
        <time>2017-02-18T09:00:44Z</time>
      </trkpt>
      <trkpt lat="48.70208" lon="1.89134">
        <ele>131.33093261719</ele>
        <time>2017-02-18T09:00:53Z</time>
      </trkpt>
      <trkpt lat="48.70214" lon="1.89156">
        <ele>130.30181884766</ele>
        <time>2017-02-18T09:01:04Z</time>
      </trkpt>
      <trkpt lat="48.70215" lon="1.89178">
        <ele>134.07611083984</ele>
        <time>2017-02-18T09:01:10Z</time>
      </trkpt>
      <trkpt lat="48.7022" lon="1.89197">
        <ele>133.19122314453</ele>
        <time>2017-02-18T09:01:18Z</time>
      </trkpt>
      <trkpt lat="48.70223" lon="1.89218">
        <ele>133.49584960938</ele>
        <time>2017-02-18T09:01:27Z</time>
      </trkpt>
      <trkpt lat="48.70234" lon="1.89232">
        <ele>136.76165771484</ele>
        <time>2017-02-18T09:01:39Z</time>
      </trkpt>
      <trkpt lat="48.70241" lon="1.8925">
        <ele>133.62219238281</ele>
        <time>2017-02-18T09:01:49Z</time>
      </trkpt>
      <trkpt lat="48.70246" lon="1.89271">
        <ele>133.29461669922</ele>
        <time>2017-02-18T09:01:57Z</time>
      </trkpt>
      <trkpt lat="48.70251" lon="1.89292">
        <ele>135.41937255859</ele>
        <time>2017-02-18T09:02:01Z</time>
      </trkpt>
      <trkpt lat="48.70265" lon="1.89301">
        <ele>134.82983398438</ele>
        <time>2017-02-18T09:02:13Z</time>
      </trkpt>
      <trkpt lat="48.70274" lon="1.89318">
        <ele>134.59484863281</ele>
        <time>2017-02-18T09:02:29Z</time>
      </trkpt>
      <trkpt lat="48.7028" lon="1.89337">
        <ele>133.97125244141</ele>
        <time>2017-02-18T09:02:40Z</time>
      </trkpt>
      <trkpt lat="48.70294" lon="1.89349">
        <ele>132.62408447266</ele>
        <time>2017-02-18T09:02:47Z</time>
      </trkpt>
      <trkpt lat="48.70308" lon="1.89352">
        <ele>134.14434814453</ele>
        <time>2017-02-18T09:02:59Z</time>
      </trkpt>
      <trkpt lat="48.70321" lon="1.89343">
        <ele>138.55059814453</ele>
        <time>2017-02-18T09:03:11Z</time>
      </trkpt>
      <trkpt lat="48.70344" lon="1.8935">
        <ele>149.76373291016</ele>
        <time>2017-02-18T09:03:41Z</time>
      </trkpt>
      <trkpt lat="48.70359" lon="1.89347">
        <ele>151.58758544922</ele>
        <time>2017-02-18T09:03:46Z</time>
      </trkpt>
      <trkpt lat="48.70372" lon="1.89342">
        <ele>149.9580078125</ele>
        <time>2017-02-18T09:03:53Z</time>
      </trkpt>
      <trkpt lat="48.70386" lon="1.89338">
        <ele>150.88488769531</ele>
        <time>2017-02-18T09:04:11Z</time>
      </trkpt>
      <trkpt lat="48.704" lon="1.89335">
        <ele>151.41534423828</ele>
        <time>2017-02-18T09:04:19Z</time>
      </trkpt>
      <trkpt lat="48.70411" lon="1.89354">
        <ele>153.45544433594</ele>
        <time>2017-02-18T09:04:29Z</time>
      </trkpt>
      <trkpt lat="48.70425" lon="1.89363">
        <ele>151.06243896484</ele>
        <time>2017-02-18T09:04:38Z</time>
      </trkpt>
      <trkpt lat="48.70439" lon="1.89368">
        <ele>149.72772216797</ele>
        <time>2017-02-18T09:04:45Z</time>
      </trkpt>
      <trkpt lat="48.70431" lon="1.89385">
        <ele>154.26177978516</ele>
        <time>2017-02-18T09:04:54Z</time>
      </trkpt>
      <trkpt lat="48.70426" lon="1.89407">
        <ele>158.26593017578</ele>
        <time>2017-02-18T09:05:16Z</time>
      </trkpt>
      <trkpt lat="48.70419" lon="1.89428">
        <ele>161.28796386719</ele>
        <time>2017-02-18T09:05:23Z</time>
      </trkpt>
      <trkpt lat="48.70427" lon="1.89444">
        <ele>161.71697998047</ele>
        <time>2017-02-18T09:05:31Z</time>
      </trkpt>
      <trkpt lat="48.7043" lon="1.89464">
        <ele>165.54736328125</ele>
        <time>2017-02-18T09:05:40Z</time>
      </trkpt>
      <trkpt lat="48.70433" lon="1.89489">
        <ele>163.04010009766</ele>
        <time>2017-02-18T09:05:49Z</time>
      </trkpt>
      <trkpt lat="48.70438" lon="1.89511">
        <ele>166.45031738281</ele>
        <time>2017-02-18T09:06:03Z</time>
      </trkpt>
      <trkpt lat="48.70443" lon="1.89531">
        <ele>166.056640625</ele>
        <time>2017-02-18T09:06:08Z</time>
      </trkpt>
      <trkpt lat="48.7044" lon="1.89558">
        <ele>171.6416015625</ele>
        <time>2017-02-18T09:06:18Z</time>
      </trkpt>
      <trkpt lat="48.70445" lon="1.89579">
        <ele>165.20465087891</ele>
        <time>2017-02-18T09:07:13Z</time>
      </trkpt>
      <trkpt lat="48.70444" lon="1.89602">
        <ele>164.08093261719</ele>
        <time>2017-02-18T09:07:21Z</time>
      </trkpt>
      <trkpt lat="48.70432" lon="1.89626">
        <ele>163.45727539062</ele>
        <time>2017-02-18T09:07:29Z</time>
      </trkpt>
      <trkpt lat="48.7042" lon="1.89639">
        <ele>165.251953125</ele>
        <time>2017-02-18T09:07:39Z</time>
      </trkpt>
      <trkpt lat="48.70414" lon="1.89661">
        <ele>165.38037109375</ele>
        <time>2017-02-18T09:07:47Z</time>
      </trkpt>
      <trkpt lat="48.70408" lon="1.89681">
        <ele>163.12048339844</ele>
        <time>2017-02-18T09:08:01Z</time>
      </trkpt>
      <trkpt lat="48.70398" lon="1.89695">
        <ele>170.40270996094</ele>
        <time>2017-02-18T09:08:09Z</time>
      </trkpt>
      <trkpt lat="48.70391" lon="1.89715">
        <ele>169.62719726562</ele>
        <time>2017-02-18T09:08:20Z</time>
      </trkpt>
      <trkpt lat="48.70383" lon="1.89734">
        <ele>169.13146972656</ele>
        <time>2017-02-18T09:08:26Z</time>
      </trkpt>
      <trkpt lat="48.70375" lon="1.8975">
        <ele>170.55023193359</ele>
        <time>2017-02-18T09:08:34Z</time>
      </trkpt>
      <trkpt lat="48.70367" lon="1.89769">
        <ele>173.97943115234</ele>
        <time>2017-02-18T09:08:42Z</time>
      </trkpt>
      <trkpt lat="48.70356" lon="1.89785">
        <ele>172.98876953125</ele>
        <time>2017-02-18T09:08:52Z</time>
      </trkpt>
      <trkpt lat="48.70358" lon="1.89807">
        <ele>170.82379150391</ele>
        <time>2017-02-18T09:09:04Z</time>
      </trkpt>
      <trkpt lat="48.70353" lon="1.89827">
        <ele>169.58325195312</ele>
        <time>2017-02-18T09:09:13Z</time>
      </trkpt>
      <trkpt lat="48.70346" lon="1.89844">
        <ele>172.5498046875</ele>
        <time>2017-02-18T09:09:22Z</time>
      </trkpt>
      <trkpt lat="48.70342" lon="1.89865">
        <ele>173.98455810547</ele>
        <time>2017-02-18T09:09:31Z</time>
      </trkpt>
      <trkpt lat="48.7034" lon="1.89887">
        <ele>173.03039550781</ele>
        <time>2017-02-18T09:09:38Z</time>
      </trkpt>
      <trkpt lat="48.70341" lon="1.89907">
        <ele>173.69885253906</ele>
        <time>2017-02-18T09:09:48Z</time>
      </trkpt>
      <trkpt lat="48.7035" lon="1.89925">
        <ele>175.31213378906</ele>
        <time>2017-02-18T09:09:56Z</time>
      </trkpt>
      <trkpt lat="48.70343" lon="1.89943">
        <ele>171.79571533203</ele>
        <time>2017-02-18T09:10:08Z</time>
      </trkpt>
      <trkpt lat="48.70339" lon="1.89963">
        <ele>167.17950439453</ele>
        <time>2017-02-18T09:10:20Z</time>
      </trkpt>
      <trkpt lat="48.70335" lon="1.89984">
        <ele>169.8427734375</ele>
        <time>2017-02-18T09:10:27Z</time>
      </trkpt>
      <trkpt lat="48.70332" lon="1.90004">
        <ele>169.29016113281</ele>
        <time>2017-02-18T09:10:37Z</time>
      </trkpt>
      <trkpt lat="48.70332" lon="1.90025">
        <ele>168.19921875</ele>
        <time>2017-02-18T09:10:48Z</time>
      </trkpt>
      <trkpt lat="48.70328" lon="1.90046">
        <ele>168.63134765625</ele>
        <time>2017-02-18T09:10:58Z</time>
      </trkpt>
      <trkpt lat="48.70326" lon="1.90066">
        <ele>173.67321777344</ele>
        <time>2017-02-18T09:11:09Z</time>
      </trkpt>
      <trkpt lat="48.70316" lon="1.90082">
        <ele>173.35632324219</ele>
        <time>2017-02-18T09:11:18Z</time>
      </trkpt>
      <trkpt lat="48.7031" lon="1.90105">
        <ele>176.76232910156</ele>
        <time>2017-02-18T09:11:26Z</time>
      </trkpt>
      <trkpt lat="48.70306" lon="1.90142">
        <ele>174.71179199219</ele>
        <time>2017-02-18T09:12:00Z</time>
      </trkpt>
      <trkpt lat="48.70309" lon="1.90166">
        <ele>170.14202880859</ele>
        <time>2017-02-18T09:12:06Z</time>
      </trkpt>
      <trkpt lat="48.70307" lon="1.90187">
        <ele>174.58990478516</ele>
        <time>2017-02-18T09:12:14Z</time>
      </trkpt>
      <trkpt lat="48.70305" lon="1.90207">
        <ele>172.74829101562</ele>
        <time>2017-02-18T09:12:27Z</time>
      </trkpt>
      <trkpt lat="48.703" lon="1.90229">
        <ele>172.94134521484</ele>
        <time>2017-02-18T09:12:34Z</time>
      </trkpt>
      <trkpt lat="48.70298" lon="1.9025">
        <ele>174.42877197266</ele>
        <time>2017-02-18T09:12:45Z</time>
      </trkpt>
      <trkpt lat="48.70294" lon="1.90272">
        <ele>173.68243408203</ele>
        <time>2017-02-18T09:12:53Z</time>
      </trkpt>
      <trkpt lat="48.70289" lon="1.90293">
        <ele>174.30352783203</ele>
        <time>2017-02-18T09:13:00Z</time>
      </trkpt>
      <trkpt lat="48.70288" lon="1.90315">
        <ele>172.02404785156</ele>
        <time>2017-02-18T09:13:12Z</time>
      </trkpt>
      <trkpt lat="48.70278" lon="1.90328">
        <ele>163.89587402344</ele>
        <time>2017-02-18T09:13:29Z</time>
      </trkpt>
      <trkpt lat="48.70275" lon="1.90348">
        <ele>163.08703613281</ele>
        <time>2017-02-18T09:13:41Z</time>
      </trkpt>
      <trkpt lat="48.70272" lon="1.90371">
        <ele>161.39227294922</ele>
        <time>2017-02-18T09:13:50Z</time>
      </trkpt>
      <trkpt lat="48.70264" lon="1.90388">
        <ele>164.13427734375</ele>
        <time>2017-02-18T09:13:59Z</time>
      </trkpt>
      <trkpt lat="48.7026" lon="1.90408">
        <ele>168.35791015625</ele>
        <time>2017-02-18T09:14:07Z</time>
      </trkpt>
      <trkpt lat="48.70253" lon="1.90427">
        <ele>168.53076171875</ele>
        <time>2017-02-18T09:14:14Z</time>
      </trkpt>
      <trkpt lat="48.70247" lon="1.90448">
        <ele>170.93627929688</ele>
        <time>2017-02-18T09:14:20Z</time>
      </trkpt>
      <trkpt lat="48.70239" lon="1.90466">
        <ele>174.79870605469</ele>
        <time>2017-02-18T09:14:28Z</time>
      </trkpt>
      <trkpt lat="48.7024" lon="1.90487">
        <ele>175.40930175781</ele>
        <time>2017-02-18T09:14:41Z</time>
      </trkpt>
      <trkpt lat="48.70241" lon="1.9051">
        <ele>176.09606933594</ele>
        <time>2017-02-18T09:14:49Z</time>
      </trkpt>
      <trkpt lat="48.70237" lon="1.90533">
        <ele>176.86761474609</ele>
        <time>2017-02-18T09:14:56Z</time>
      </trkpt>
      <trkpt lat="48.70238" lon="1.90553">
        <ele>177.27319335938</ele>
        <time>2017-02-18T09:15:08Z</time>
      </trkpt>
      <trkpt lat="48.70235" lon="1.90577">
        <ele>178.14788818359</ele>
        <time>2017-02-18T09:15:17Z</time>
      </trkpt>
      <trkpt lat="48.70235" lon="1.90603">
        <ele>174.103515625</ele>
        <time>2017-02-18T09:15:29Z</time>
      </trkpt>
      <trkpt lat="48.70238" lon="1.90625">
        <ele>174.17932128906</ele>
        <time>2017-02-18T09:15:37Z</time>
      </trkpt>
      <trkpt lat="48.70237" lon="1.90646">
        <ele>174.87933349609</ele>
        <time>2017-02-18T09:15:43Z</time>
      </trkpt>
      <trkpt lat="48.70232" lon="1.90667">
        <ele>176.54150390625</ele>
        <time>2017-02-18T09:15:48Z</time>
      </trkpt>
      <trkpt lat="48.70237" lon="1.90693">
        <ele>173.43054199219</ele>
        <time>2017-02-18T09:16:18Z</time>
      </trkpt>
      <trkpt lat="48.70231" lon="1.90715">
        <ele>174.28924560547</ele>
        <time>2017-02-18T09:16:23Z</time>
      </trkpt>
      <trkpt lat="48.70224" lon="1.90735">
        <ele>171.75762939453</ele>
        <time>2017-02-18T09:16:28Z</time>
      </trkpt>
      <trkpt lat="48.70219" lon="1.90754">
        <ele>171.59240722656</ele>
        <time>2017-02-18T09:16:33Z</time>
      </trkpt>
      <trkpt lat="48.70218" lon="1.90777">
        <ele>171.88269042969</ele>
        <time>2017-02-18T09:16:40Z</time>
      </trkpt>
      <trkpt lat="48.70212" lon="1.90799">
        <ele>173.22564697266</ele>
        <time>2017-02-18T09:16:46Z</time>
      </trkpt>
      <trkpt lat="48.70207" lon="1.90819">
        <ele>173.49645996094</ele>
        <time>2017-02-18T09:16:57Z</time>
      </trkpt>
      <trkpt lat="48.702" lon="1.90838">
        <ele>169.77435302734</ele>
        <time>2017-02-18T09:17:10Z</time>
      </trkpt>
      <trkpt lat="48.70192" lon="1.90857">
        <ele>166.57904052734</ele>
        <time>2017-02-18T09:17:19Z</time>
      </trkpt>
      <trkpt lat="48.70187" lon="1.90876">
        <ele>167.54345703125</ele>
        <time>2017-02-18T09:17:26Z</time>
      </trkpt>
      <trkpt lat="48.70183" lon="1.90895">
        <ele>167.59259033203</ele>
        <time>2017-02-18T09:17:33Z</time>
      </trkpt>
      <trkpt lat="48.70176" lon="1.90914">
        <ele>168.99871826172</ele>
        <time>2017-02-18T09:17:44Z</time>
      </trkpt>
      <trkpt lat="48.70172" lon="1.90935">
        <ele>173.81170654297</ele>
        <time>2017-02-18T09:17:52Z</time>
      </trkpt>
      <trkpt lat="48.70164" lon="1.90955">
        <ele>171.63745117188</ele>
        <time>2017-02-18T09:18:04Z</time>
      </trkpt>
      <trkpt lat="48.70158" lon="1.90974">
        <ele>171.34240722656</ele>
        <time>2017-02-18T09:18:10Z</time>
      </trkpt>
      <trkpt lat="48.70155" lon="1.90995">
        <ele>173.63317871094</ele>
        <time>2017-02-18T09:18:18Z</time>
      </trkpt>
      <trkpt lat="48.70152" lon="1.91016">
        <ele>175.96075439453</ele>
        <time>2017-02-18T09:18:29Z</time>
      </trkpt>
      <trkpt lat="48.70151" lon="1.91037">
        <ele>178.01245117188</ele>
        <time>2017-02-18T09:18:44Z</time>
      </trkpt>
      <trkpt lat="48.70141" lon="1.91051">
        <ele>173.35137939453</ele>
        <time>2017-02-18T09:19:03Z</time>
      </trkpt>
      <trkpt lat="48.70134" lon="1.91071">
        <ele>172.82348632812</ele>
        <time>2017-02-18T09:19:13Z</time>
      </trkpt>
      <trkpt lat="48.70131" lon="1.91091">
        <ele>164.52398681641</ele>
        <time>2017-02-18T09:19:56Z</time>
      </trkpt>
      <trkpt lat="48.7013" lon="1.91112">
        <ele>169.28088378906</ele>
        <time>2017-02-18T09:20:04Z</time>
      </trkpt>
      <trkpt lat="48.70124" lon="1.91133">
        <ele>172.82073974609</ele>
        <time>2017-02-18T09:20:11Z</time>
      </trkpt>
      <trkpt lat="48.70118" lon="1.91152">
        <ele>169.72192382812</ele>
        <time>2017-02-18T09:20:20Z</time>
      </trkpt>
      <trkpt lat="48.70116" lon="1.91174">
        <ele>174.71697998047</ele>
        <time>2017-02-18T09:20:29Z</time>
      </trkpt>
      <trkpt lat="48.70107" lon="1.91191">
        <ele>173.31945800781</ele>
        <time>2017-02-18T09:20:37Z</time>
      </trkpt>
      <trkpt lat="48.70102" lon="1.9121">
        <ele>171.08209228516</ele>
        <time>2017-02-18T09:20:45Z</time>
      </trkpt>
      <trkpt lat="48.70098" lon="1.91213">
        <ele>170.47729492188</ele>
        <time>2017-02-18T09:22:01Z</time>
      </trkpt>
      <trkpt lat="48.70009" lon="1.91131">
        <ele>162.59802246094</ele>
        <time>2017-02-18T09:28:13Z</time>
      </trkpt>
      <trkpt lat="48.70005" lon="1.91127">
        <ele>163.60437011719</ele>
        <time>2017-02-18T09:28:14Z</time>
      </trkpt>
      <trkpt lat="48.69996" lon="1.91109">
        <ele>158.82348632812</ele>
        <time>2017-02-18T09:28:29Z</time>
      </trkpt>
      <trkpt lat="48.69991" lon="1.9109">
        <ele>160.15063476562</ele>
        <time>2017-02-18T09:28:43Z</time>
      </trkpt>
      <trkpt lat="48.69988" lon="1.91069">
        <ele>149.62298583984</ele>
        <time>2017-02-18T09:28:55Z</time>
      </trkpt>
      <trkpt lat="48.69987" lon="1.91046">
        <ele>147.04870605469</ele>
        <time>2017-02-18T09:29:12Z</time>
      </trkpt>
      <trkpt lat="48.69982" lon="1.91026">
        <ele>143.24890136719</ele>
        <time>2017-02-18T09:29:21Z</time>
      </trkpt>
      <trkpt lat="48.69979" lon="1.91003">
        <ele>142.57147216797</ele>
        <time>2017-02-18T09:29:30Z</time>
      </trkpt>
      <trkpt lat="48.69975" lon="1.90983">
        <ele>145.59588623047</ele>
        <time>2017-02-18T09:29:37Z</time>
      </trkpt>
      <trkpt lat="48.69972" lon="1.90962">
        <ele>145.00109863281</ele>
        <time>2017-02-18T09:29:46Z</time>
      </trkpt>
      <trkpt lat="48.69962" lon="1.90945">
        <ele>147.99096679688</ele>
        <time>2017-02-18T09:29:55Z</time>
      </trkpt>
      <trkpt lat="48.69956" lon="1.90926">
        <ele>144.06396484375</ele>
        <time>2017-02-18T09:30:03Z</time>
      </trkpt>
      <trkpt lat="48.6996" lon="1.90905">
        <ele>137.69970703125</ele>
        <time>2017-02-18T09:30:12Z</time>
      </trkpt>
      <trkpt lat="48.69967" lon="1.90886">
        <ele>140.63049316406</ele>
        <time>2017-02-18T09:30:19Z</time>
      </trkpt>
      <trkpt lat="48.6997" lon="1.90865">
        <ele>143.17449951172</ele>
        <time>2017-02-18T09:30:25Z</time>
      </trkpt>
      <trkpt lat="48.69973" lon="1.90843">
        <ele>136.76733398438</ele>
        <time>2017-02-18T09:30:34Z</time>
      </trkpt>
      <trkpt lat="48.6998" lon="1.90824">
        <ele>135.52514648438</ele>
        <time>2017-02-18T09:30:45Z</time>
      </trkpt>
      <trkpt lat="48.69988" lon="1.90806">
        <ele>139.76031494141</ele>
        <time>2017-02-18T09:30:51Z</time>
      </trkpt>
      <trkpt lat="48.69991" lon="1.90785">
        <ele>142.10241699219</ele>
        <time>2017-02-18T09:30:58Z</time>
      </trkpt>
      <trkpt lat="48.70003" lon="1.90769">
        <ele>148.00622558594</ele>
        <time>2017-02-18T09:31:22Z</time>
      </trkpt>
      <trkpt lat="48.70015" lon="1.90759">
        <ele>140.47888183594</ele>
        <time>2017-02-18T09:31:29Z</time>
      </trkpt>
      <trkpt lat="48.70028" lon="1.90748">
        <ele>143.29370117188</ele>
        <time>2017-02-18T09:31:36Z</time>
      </trkpt>
      <trkpt lat="48.70037" lon="1.90732">
        <ele>144.49694824219</ele>
        <time>2017-02-18T09:31:43Z</time>
      </trkpt>
      <trkpt lat="48.70045" lon="1.90714">
        <ele>136.76934814453</ele>
        <time>2017-02-18T09:31:54Z</time>
      </trkpt>
      <trkpt lat="48.70059" lon="1.90702">
        <ele>139.18994140625</ele>
        <time>2017-02-18T09:31:59Z</time>
      </trkpt>
      <trkpt lat="48.70065" lon="1.90683">
        <ele>139.86926269531</ele>
        <time>2017-02-18T09:32:06Z</time>
      </trkpt>
      <trkpt lat="48.70066" lon="1.90657">
        <ele>143.51611328125</ele>
        <time>2017-02-18T09:32:12Z</time>
      </trkpt>
      <trkpt lat="48.70068" lon="1.90629">
        <ele>144.06982421875</ele>
        <time>2017-02-18T09:32:19Z</time>
      </trkpt>
      <trkpt lat="48.70064" lon="1.90608">
        <ele>143.17163085938</ele>
        <time>2017-02-18T09:32:33Z</time>
      </trkpt>
      <trkpt lat="48.70055" lon="1.90593">
        <ele>149.15386962891</ele>
        <time>2017-02-18T09:32:42Z</time>
      </trkpt>
      <trkpt lat="48.7005" lon="1.90572">
        <ele>151.4345703125</ele>
        <time>2017-02-18T09:32:51Z</time>
      </trkpt>
      <trkpt lat="48.70035" lon="1.90563">
        <ele>137.39282226562</ele>
        <time>2017-02-18T09:33:25Z</time>
      </trkpt>
      <trkpt lat="48.70019" lon="1.90563">
        <ele>133.18408203125</ele>
        <time>2017-02-18T09:33:31Z</time>
      </trkpt>
      <trkpt lat="48.70005" lon="1.90559">
        <ele>132.07055664062</ele>
        <time>2017-02-18T09:33:38Z</time>
      </trkpt>
      <trkpt lat="48.69992" lon="1.90551">
        <ele>133.55310058594</ele>
        <time>2017-02-18T09:33:47Z</time>
      </trkpt>
      <trkpt lat="48.69979" lon="1.9054">
        <ele>135.80010986328</ele>
        <time>2017-02-18T09:33:57Z</time>
      </trkpt>
      <trkpt lat="48.69971" lon="1.90523">
        <ele>138.53955078125</ele>
        <time>2017-02-18T09:34:06Z</time>
      </trkpt>
      <trkpt lat="48.69957" lon="1.90519">
        <ele>138.771484375</ele>
        <time>2017-02-18T09:34:14Z</time>
      </trkpt>
      <trkpt lat="48.69944" lon="1.90512">
        <ele>138.25622558594</ele>
        <time>2017-02-18T09:34:24Z</time>
      </trkpt>
      <trkpt lat="48.69933" lon="1.905">
        <ele>140.07543945312</ele>
        <time>2017-02-18T09:34:34Z</time>
      </trkpt>
      <trkpt lat="48.69919" lon="1.90497">
        <ele>141.86145019531</ele>
        <time>2017-02-18T09:34:45Z</time>
      </trkpt>
      <trkpt lat="48.69904" lon="1.90497">
        <ele>141.30908203125</ele>
        <time>2017-02-18T09:34:53Z</time>
      </trkpt>
      <trkpt lat="48.6989" lon="1.90488">
        <ele>134.76354980469</ele>
        <time>2017-02-18T09:35:03Z</time>
      </trkpt>
      <trkpt lat="48.69878" lon="1.90477">
        <ele>137.50677490234</ele>
        <time>2017-02-18T09:35:14Z</time>
      </trkpt>
      <trkpt lat="48.69864" lon="1.90473">
        <ele>139.47332763672</ele>
        <time>2017-02-18T09:35:24Z</time>
      </trkpt>
      <trkpt lat="48.69847" lon="1.90472">
        <ele>136.1953125</ele>
        <time>2017-02-18T09:35:34Z</time>
      </trkpt>
      <trkpt lat="48.69834" lon="1.90463">
        <ele>136.87530517578</ele>
        <time>2017-02-18T09:35:41Z</time>
      </trkpt>
      <trkpt lat="48.69821" lon="1.90452">
        <ele>140.40277099609</ele>
        <time>2017-02-18T09:35:50Z</time>
      </trkpt>
      <trkpt lat="48.69806" lon="1.90452">
        <ele>143.19830322266</ele>
        <time>2017-02-18T09:36:00Z</time>
      </trkpt>
      <trkpt lat="48.69792" lon="1.90445">
        <ele>142.35919189453</ele>
        <time>2017-02-18T09:36:07Z</time>
      </trkpt>
      <trkpt lat="48.69778" lon="1.90446">
        <ele>144.87066650391</ele>
        <time>2017-02-18T09:36:14Z</time>
      </trkpt>
      <trkpt lat="48.69765" lon="1.90454">
        <ele>150.90466308594</ele>
        <time>2017-02-18T09:36:23Z</time>
      </trkpt>
      <trkpt lat="48.69751" lon="1.90454">
        <ele>142.55749511719</ele>
        <time>2017-02-18T09:36:39Z</time>
      </trkpt>
      <trkpt lat="48.69732" lon="1.90464">
        <ele>138.99377441406</ele>
        <time>2017-02-18T09:36:44Z</time>
      </trkpt>
      <trkpt lat="48.69722" lon="1.90477">
        <ele>139.68414306641</ele>
        <time>2017-02-18T09:36:52Z</time>
      </trkpt>
      <trkpt lat="48.69709" lon="1.90482">
        <ele>140.29901123047</ele>
        <time>2017-02-18T09:37:41Z</time>
      </trkpt>
      <trkpt lat="48.69698" lon="1.90495">
        <ele>141.36743164062</ele>
        <time>2017-02-18T09:37:48Z</time>
      </trkpt>
      <trkpt lat="48.69686" lon="1.90512">
        <ele>144.27862548828</ele>
        <time>2017-02-18T09:37:54Z</time>
      </trkpt>
      <trkpt lat="48.69676" lon="1.90526">
        <ele>144.17242431641</ele>
        <time>2017-02-18T09:37:58Z</time>
      </trkpt>
      <trkpt lat="48.69662" lon="1.90535">
        <ele>148.85748291016</ele>
        <time>2017-02-18T09:38:13Z</time>
      </trkpt>
      <trkpt lat="48.69648" lon="1.90539">
        <ele>151.62847900391</ele>
        <time>2017-02-18T09:38:24Z</time>
      </trkpt>
      <trkpt lat="48.69637" lon="1.90525">
        <ele>151.76733398438</ele>
        <time>2017-02-18T09:38:57Z</time>
      </trkpt>
      <trkpt lat="48.69636" lon="1.90504">
        <ele>150.46350097656</ele>
        <time>2017-02-18T09:39:12Z</time>
      </trkpt>
      <trkpt lat="48.69632" lon="1.90482">
        <ele>149.78033447266</ele>
        <time>2017-02-18T09:39:22Z</time>
      </trkpt>
      <trkpt lat="48.69633" lon="1.9046">
        <ele>148.08734130859</ele>
        <time>2017-02-18T09:39:34Z</time>
      </trkpt>
      <trkpt lat="48.69632" lon="1.90439">
        <ele>146.26342773438</ele>
        <time>2017-02-18T09:39:44Z</time>
      </trkpt>
      <trkpt lat="48.69633" lon="1.90418">
        <ele>144.84423828125</ele>
        <time>2017-02-18T09:39:57Z</time>
      </trkpt>
      <trkpt lat="48.6963" lon="1.90397">
        <ele>142.44116210938</ele>
        <time>2017-02-18T09:40:07Z</time>
      </trkpt>
      <trkpt lat="48.69623" lon="1.90377">
        <ele>144.58026123047</ele>
        <time>2017-02-18T09:40:17Z</time>
      </trkpt>
      <trkpt lat="48.6962" lon="1.90356">
        <ele>145.90869140625</ele>
        <time>2017-02-18T09:40:26Z</time>
      </trkpt>
      <trkpt lat="48.6962" lon="1.90334">
        <ele>143.70703125</ele>
        <time>2017-02-18T09:40:39Z</time>
      </trkpt>
      <trkpt lat="48.69618" lon="1.90313">
        <ele>142.76489257812</ele>
        <time>2017-02-18T09:40:47Z</time>
      </trkpt>
      <trkpt lat="48.69615" lon="1.90293">
        <ele>145.65875244141</ele>
        <time>2017-02-18T09:40:54Z</time>
      </trkpt>
      <trkpt lat="48.69613" lon="1.90271">
        <ele>145.13934326172</ele>
        <time>2017-02-18T09:41:02Z</time>
      </trkpt>
      <trkpt lat="48.69613" lon="1.9025">
        <ele>143.17846679688</ele>
        <time>2017-02-18T09:41:14Z</time>
      </trkpt>
      <trkpt lat="48.6961" lon="1.90229">
        <ele>142.55065917969</ele>
        <time>2017-02-18T09:41:24Z</time>
      </trkpt>
      <trkpt lat="48.69606" lon="1.90207">
        <ele>144.25964355469</ele>
        <time>2017-02-18T09:41:32Z</time>
      </trkpt>
      <trkpt lat="48.69607" lon="1.90186">
        <ele>147.90490722656</ele>
        <time>2017-02-18T09:41:42Z</time>
      </trkpt>
      <trkpt lat="48.69604" lon="1.90166">
        <ele>148.42132568359</ele>
        <time>2017-02-18T09:41:50Z</time>
      </trkpt>
      <trkpt lat="48.69599" lon="1.90145">
        <ele>146.76373291016</ele>
        <time>2017-02-18T09:41:59Z</time>
      </trkpt>
      <trkpt lat="48.69597" lon="1.90124">
        <ele>144.96490478516</ele>
        <time>2017-02-18T09:42:08Z</time>
      </trkpt>
      <trkpt lat="48.69594" lon="1.90102">
        <ele>143.02478027344</ele>
        <time>2017-02-18T09:42:21Z</time>
      </trkpt>
      <trkpt lat="48.69588" lon="1.90077">
        <ele>142.53912353516</ele>
        <time>2017-02-18T09:42:35Z</time>
      </trkpt>
      <trkpt lat="48.69582" lon="1.90059">
        <ele>144.25085449219</ele>
        <time>2017-02-18T09:42:53Z</time>
      </trkpt>
      <trkpt lat="48.69576" lon="1.90041">
        <ele>145.22979736328</ele>
        <time>2017-02-18T09:43:02Z</time>
      </trkpt>
      <trkpt lat="48.69571" lon="1.90021">
        <ele>146.53076171875</ele>
        <time>2017-02-18T09:43:10Z</time>
      </trkpt>
      <trkpt lat="48.69565" lon="1.90001">
        <ele>141.38232421875</ele>
        <time>2017-02-18T09:43:19Z</time>
      </trkpt>
      <trkpt lat="48.69564" lon="1.89981">
        <ele>139.57312011719</ele>
        <time>2017-02-18T09:43:29Z</time>
      </trkpt>
      <trkpt lat="48.69559" lon="1.89961">
        <ele>141.42199707031</ele>
        <time>2017-02-18T09:43:37Z</time>
      </trkpt>
      <trkpt lat="48.69551" lon="1.89944">
        <ele>142.669921875</ele>
        <time>2017-02-18T09:43:45Z</time>
      </trkpt>
      <trkpt lat="48.69545" lon="1.89924">
        <ele>144.19360351562</ele>
        <time>2017-02-18T09:43:52Z</time>
      </trkpt>
      <trkpt lat="48.69534" lon="1.89908">
        <ele>143.05010986328</ele>
        <time>2017-02-18T09:43:59Z</time>
      </trkpt>
      <trkpt lat="48.69528" lon="1.89889">
        <ele>140.68859863281</ele>
        <time>2017-02-18T09:44:08Z</time>
      </trkpt>
      <trkpt lat="48.69521" lon="1.8987">
        <ele>143.09686279297</ele>
        <time>2017-02-18T09:44:19Z</time>
      </trkpt>
      <trkpt lat="48.69514" lon="1.8985">
        <ele>145.93365478516</ele>
        <time>2017-02-18T09:44:29Z</time>
      </trkpt>
      <trkpt lat="48.69507" lon="1.89831">
        <ele>160.20495605469</ele>
        <time>2017-02-18T09:44:37Z</time>
      </trkpt>
      <trkpt lat="48.695" lon="1.89813">
        <ele>161.84777832031</ele>
        <time>2017-02-18T09:44:44Z</time>
      </trkpt>
      <trkpt lat="48.69494" lon="1.89793">
        <ele>162.0419921875</ele>
        <time>2017-02-18T09:44:55Z</time>
      </trkpt>
      <trkpt lat="48.69486" lon="1.89776">
        <ele>163.59204101562</ele>
        <time>2017-02-18T09:45:06Z</time>
      </trkpt>
      <trkpt lat="48.69482" lon="1.89756">
        <ele>164.09674072266</ele>
        <time>2017-02-18T09:45:16Z</time>
      </trkpt>
      <trkpt lat="48.69484" lon="1.89735">
        <ele>162.75115966797</ele>
        <time>2017-02-18T09:45:27Z</time>
      </trkpt>
      <trkpt lat="48.69498" lon="1.89726">
        <ele>157.87487792969</ele>
        <time>2017-02-18T09:45:42Z</time>
      </trkpt>
      <trkpt lat="48.69512" lon="1.89723">
        <ele>158.16876220703</ele>
        <time>2017-02-18T09:45:54Z</time>
      </trkpt>
      <trkpt lat="48.69526" lon="1.89724">
        <ele>159.73516845703</ele>
        <time>2017-02-18T09:46:01Z</time>
      </trkpt>
      <trkpt lat="48.69531" lon="1.89705">
        <ele>156.65698242188</ele>
        <time>2017-02-18T09:46:10Z</time>
      </trkpt>
      <trkpt lat="48.69535" lon="1.89684">
        <ele>153.99963378906</ele>
        <time>2017-02-18T09:46:24Z</time>
      </trkpt>
      <trkpt lat="48.69542" lon="1.89666">
        <ele>155.37963867188</ele>
        <time>2017-02-18T09:46:33Z</time>
      </trkpt>
      <trkpt lat="48.69544" lon="1.89643">
        <ele>157.17016601562</ele>
        <time>2017-02-18T09:46:40Z</time>
      </trkpt>
      <trkpt lat="48.69532" lon="1.8963">
        <ele>162.25799560547</ele>
        <time>2017-02-18T09:46:55Z</time>
      </trkpt>
      <trkpt lat="48.69517" lon="1.89629">
        <ele>163.73498535156</ele>
        <time>2017-02-18T09:47:03Z</time>
      </trkpt>
      <trkpt lat="48.69504" lon="1.89622">
        <ele>167.44201660156</ele>
        <time>2017-02-18T09:47:13Z</time>
      </trkpt>
      <trkpt lat="48.69491" lon="1.89613">
        <ele>164.48199462891</ele>
        <time>2017-02-18T09:47:24Z</time>
      </trkpt>
      <trkpt lat="48.69477" lon="1.89608">
        <ele>163.89343261719</ele>
        <time>2017-02-18T09:47:33Z</time>
      </trkpt>
      <trkpt lat="48.69461" lon="1.89604">
        <ele>166.583984375</ele>
        <time>2017-02-18T09:47:40Z</time>
      </trkpt>
      <trkpt lat="48.69448" lon="1.89597">
        <ele>172.2861328125</ele>
        <time>2017-02-18T09:47:49Z</time>
      </trkpt>
      <trkpt lat="48.69435" lon="1.89588">
        <ele>176.97705078125</ele>
        <time>2017-02-18T09:47:58Z</time>
      </trkpt>
      <trkpt lat="48.69421" lon="1.89583">
        <ele>171.35791015625</ele>
        <time>2017-02-18T09:48:08Z</time>
      </trkpt>
      <trkpt lat="48.69406" lon="1.89577">
        <ele>167.69482421875</ele>
        <time>2017-02-18T09:48:17Z</time>
      </trkpt>
      <trkpt lat="48.69396" lon="1.89565">
        <ele>167.80505371094</ele>
        <time>2017-02-18T09:48:26Z</time>
      </trkpt>
      <trkpt lat="48.69379" lon="1.89555">
        <ele>177.02056884766</ele>
        <time>2017-02-18T09:48:42Z</time>
      </trkpt>
      <trkpt lat="48.69364" lon="1.89553">
        <ele>178.30352783203</ele>
        <time>2017-02-18T09:48:50Z</time>
      </trkpt>
      <trkpt lat="48.69351" lon="1.89543">
        <ele>177.45159912109</ele>
        <time>2017-02-18T09:48:58Z</time>
      </trkpt>
      <trkpt lat="48.69337" lon="1.89546">
        <ele>172.96813964844</ele>
        <time>2017-02-18T09:49:08Z</time>
      </trkpt>
      <trkpt lat="48.69322" lon="1.89539">
        <ele>174.00939941406</ele>
        <time>2017-02-18T09:49:17Z</time>
      </trkpt>
      <trkpt lat="48.69308" lon="1.8952">
        <ele>172.76287841797</ele>
        <time>2017-02-18T09:49:25Z</time>
      </trkpt>
      <trkpt lat="48.69294" lon="1.89521">
        <ele>169.85400390625</ele>
        <time>2017-02-18T09:49:38Z</time>
      </trkpt>
      <trkpt lat="48.69281" lon="1.89517">
        <ele>170.69769287109</ele>
        <time>2017-02-18T09:49:50Z</time>
      </trkpt>
      <trkpt lat="48.69267" lon="1.89509">
        <ele>170.31335449219</ele>
        <time>2017-02-18T09:50:00Z</time>
      </trkpt>
      <trkpt lat="48.69253" lon="1.89502">
        <ele>171.03771972656</ele>
        <time>2017-02-18T09:50:07Z</time>
      </trkpt>
      <trkpt lat="48.69238" lon="1.89497">
        <ele>174.26184082031</ele>
        <time>2017-02-18T09:50:15Z</time>
      </trkpt>
      <trkpt lat="48.69224" lon="1.89487">
        <ele>179.66644287109</ele>
        <time>2017-02-18T09:50:23Z</time>
      </trkpt>
      <trkpt lat="48.69212" lon="1.89479">
        <ele>184.74975585938</ele>
        <time>2017-02-18T09:50:34Z</time>
      </trkpt>
      <trkpt lat="48.69199" lon="1.89471">
        <ele>180.25933837891</ele>
        <time>2017-02-18T09:50:44Z</time>
      </trkpt>
      <trkpt lat="48.69184" lon="1.89468">
        <ele>175.71026611328</ele>
        <time>2017-02-18T09:50:56Z</time>
      </trkpt>
      <trkpt lat="48.69172" lon="1.89457">
        <ele>173.74237060547</ele>
        <time>2017-02-18T09:51:05Z</time>
      </trkpt>
      <trkpt lat="48.69157" lon="1.89459">
        <ele>170.94744873047</ele>
        <time>2017-02-18T09:51:15Z</time>
      </trkpt>
      <trkpt lat="48.69144" lon="1.8945">
        <ele>172.31481933594</ele>
        <time>2017-02-18T09:51:23Z</time>
      </trkpt>
      <trkpt lat="48.69132" lon="1.8944">
        <ele>170.85632324219</ele>
        <time>2017-02-18T09:51:31Z</time>
      </trkpt>
      <trkpt lat="48.69119" lon="1.89431">
        <ele>168.74859619141</ele>
        <time>2017-02-18T09:51:39Z</time>
      </trkpt>
      <trkpt lat="48.69106" lon="1.89423">
        <ele>169.37225341797</ele>
        <time>2017-02-18T09:51:45Z</time>
      </trkpt>
      <trkpt lat="48.69093" lon="1.89416">
        <ele>169.99481201172</ele>
        <time>2017-02-18T09:51:55Z</time>
      </trkpt>
      <trkpt lat="48.69079" lon="1.89412">
        <ele>168.59967041016</ele>
        <time>2017-02-18T09:52:06Z</time>
      </trkpt>
      <trkpt lat="48.69063" lon="1.89409">
        <ele>171.28375244141</ele>
        <time>2017-02-18T09:52:11Z</time>
      </trkpt>
      <trkpt lat="48.69038" lon="1.89379">
        <ele>172.87878417969</ele>
        <time>2017-02-18T09:52:16Z</time>
      </trkpt>
      <trkpt lat="48.69025" lon="1.89376">
        <ele>173.33605957031</ele>
        <time>2017-02-18T09:52:31Z</time>
      </trkpt>
      <trkpt lat="48.6901" lon="1.89376">
        <ele>172.45159912109</ele>
        <time>2017-02-18T09:52:42Z</time>
      </trkpt>
      <trkpt lat="48.68999" lon="1.89361">
        <ele>173.37677001953</ele>
        <time>2017-02-18T09:52:49Z</time>
      </trkpt>
      <trkpt lat="48.68986" lon="1.89353">
        <ele>174.27307128906</ele>
        <time>2017-02-18T09:53:00Z</time>
      </trkpt>
      <trkpt lat="48.68973" lon="1.89343">
        <ele>173.38128662109</ele>
        <time>2017-02-18T09:53:12Z</time>
      </trkpt>
      <trkpt lat="48.68958" lon="1.89349">
        <ele>173.11694335938</ele>
        <time>2017-02-18T09:53:16Z</time>
      </trkpt>
      <trkpt lat="48.68942" lon="1.89356">
        <ele>172.49572753906</ele>
        <time>2017-02-18T09:53:23Z</time>
      </trkpt>
      <trkpt lat="48.68926" lon="1.89353">
        <ele>174.80926513672</ele>
        <time>2017-02-18T09:53:34Z</time>
      </trkpt>
      <trkpt lat="48.68913" lon="1.89359">
        <ele>177.20281982422</ele>
        <time>2017-02-18T09:53:41Z</time>
      </trkpt>
      <trkpt lat="48.68902" lon="1.89343">
        <ele>179.3564453125</ele>
        <time>2017-02-18T09:53:49Z</time>
      </trkpt>
      <trkpt lat="48.68891" lon="1.8933">
        <ele>180.01184082031</ele>
        <time>2017-02-18T09:53:55Z</time>
      </trkpt>
      <trkpt lat="48.68877" lon="1.89333">
        <ele>178.99035644531</ele>
        <time>2017-02-18T09:54:02Z</time>
      </trkpt>
      <trkpt lat="48.68864" lon="1.89324">
        <ele>177.56811523438</ele>
        <time>2017-02-18T09:54:11Z</time>
      </trkpt>
      <trkpt lat="48.68847" lon="1.89337">
        <ele>183.82116699219</ele>
        <time>2017-02-18T09:54:20Z</time>
      </trkpt>
      <trkpt lat="48.68833" lon="1.89343">
        <ele>187.21923828125</ele>
        <time>2017-02-18T09:54:27Z</time>
      </trkpt>
      <trkpt lat="48.68821" lon="1.89333">
        <ele>189.91009521484</ele>
        <time>2017-02-18T09:54:35Z</time>
      </trkpt>
      <trkpt lat="48.68801" lon="1.89332">
        <ele>186.85662841797</ele>
        <time>2017-02-18T09:54:52Z</time>
      </trkpt>
      <trkpt lat="48.68787" lon="1.8933">
        <ele>186.58123779297</ele>
        <time>2017-02-18T09:54:58Z</time>
      </trkpt>
      <trkpt lat="48.68774" lon="1.89324">
        <ele>186.51623535156</ele>
        <time>2017-02-18T09:55:07Z</time>
      </trkpt>
      <trkpt lat="48.68756" lon="1.89319">
        <ele>185.77490234375</ele>
        <time>2017-02-18T09:55:14Z</time>
      </trkpt>
      <trkpt lat="48.68743" lon="1.89315">
        <ele>187.46215820312</ele>
        <time>2017-02-18T09:55:29Z</time>
      </trkpt>
      <trkpt lat="48.68729" lon="1.89309">
        <ele>186.2412109375</ele>
        <time>2017-02-18T09:55:39Z</time>
      </trkpt>
      <trkpt lat="48.68717" lon="1.89299">
        <ele>185.59033203125</ele>
        <time>2017-02-18T09:55:50Z</time>
      </trkpt>
      <trkpt lat="48.68706" lon="1.89285">
        <ele>186.43090820312</ele>
        <time>2017-02-18T09:56:01Z</time>
      </trkpt>
      <trkpt lat="48.68695" lon="1.89272">
        <ele>186.01245117188</ele>
        <time>2017-02-18T09:56:10Z</time>
      </trkpt>
      <trkpt lat="48.68684" lon="1.8926">
        <ele>184.9951171875</ele>
        <time>2017-02-18T09:56:18Z</time>
      </trkpt>
      <trkpt lat="48.6867" lon="1.89254">
        <ele>184.81640625</ele>
        <time>2017-02-18T09:56:27Z</time>
      </trkpt>
      <trkpt lat="48.6866" lon="1.8924">
        <ele>184.09906005859</ele>
        <time>2017-02-18T09:56:34Z</time>
      </trkpt>
      <trkpt lat="48.68648" lon="1.89229">
        <ele>186.34716796875</ele>
        <time>2017-02-18T09:56:44Z</time>
      </trkpt>
      <trkpt lat="48.68637" lon="1.89214">
        <ele>183.92401123047</ele>
        <time>2017-02-18T09:56:50Z</time>
      </trkpt>
      <trkpt lat="48.68624" lon="1.89199">
        <ele>186.34509277344</ele>
        <time>2017-02-18T09:57:01Z</time>
      </trkpt>
      <trkpt lat="48.68614" lon="1.89185">
        <ele>184.63745117188</ele>
        <time>2017-02-18T09:57:11Z</time>
      </trkpt>
      <trkpt lat="48.68611" lon="1.89164">
        <ele>181.4697265625</ele>
        <time>2017-02-18T09:57:50Z</time>
      </trkpt>
      <trkpt lat="48.68614" lon="1.89144">
        <ele>179.61865234375</ele>
        <time>2017-02-18T09:57:59Z</time>
      </trkpt>
      <trkpt lat="48.68609" lon="1.89123">
        <ele>179.38519287109</ele>
        <time>2017-02-18T09:58:07Z</time>
      </trkpt>
      <trkpt lat="48.68604" lon="1.89099">
        <ele>185.56420898438</ele>
        <time>2017-02-18T09:58:19Z</time>
      </trkpt>
      <trkpt lat="48.68606" lon="1.89077">
        <ele>186.41174316406</ele>
        <time>2017-02-18T09:58:40Z</time>
      </trkpt>
      <trkpt lat="48.68606" lon="1.89054">
        <ele>188.19927978516</ele>
        <time>2017-02-18T09:58:47Z</time>
      </trkpt>
      <trkpt lat="48.68606" lon="1.89031">
        <ele>183.32733154297</ele>
        <time>2017-02-18T09:58:51Z</time>
      </trkpt>
      <trkpt lat="48.68603" lon="1.89011">
        <ele>193.92962646484</ele>
        <time>2017-02-18T09:58:58Z</time>
      </trkpt>
      <trkpt lat="48.68605" lon="1.88989">
        <ele>192.1982421875</ele>
        <time>2017-02-18T09:59:05Z</time>
      </trkpt>
      <trkpt lat="48.68606" lon="1.88969">
        <ele>195.01141357422</ele>
        <time>2017-02-18T09:59:14Z</time>
      </trkpt>
      <trkpt lat="48.68609" lon="1.88948">
        <ele>194.70745849609</ele>
        <time>2017-02-18T09:59:24Z</time>
      </trkpt>
      <trkpt lat="48.68607" lon="1.88927">
        <ele>196.75</ele>
        <time>2017-02-18T09:59:31Z</time>
      </trkpt>
      <trkpt lat="48.68608" lon="1.88906">
        <ele>192.91058349609</ele>
        <time>2017-02-18T09:59:40Z</time>
      </trkpt>
      <trkpt lat="48.68607" lon="1.88884">
        <ele>184.21044921875</ele>
        <time>2017-02-18T09:59:51Z</time>
      </trkpt>
      <trkpt lat="48.68606" lon="1.88864">
        <ele>183.12646484375</ele>
        <time>2017-02-18T10:00:00Z</time>
      </trkpt>
      <trkpt lat="48.68606" lon="1.88843">
        <ele>183.29821777344</ele>
        <time>2017-02-18T10:00:09Z</time>
      </trkpt>
      <trkpt lat="48.68604" lon="1.8882">
        <ele>180.81433105469</ele>
        <time>2017-02-18T10:00:19Z</time>
      </trkpt>
      <trkpt lat="48.68605" lon="1.88799">
        <ele>178.73614501953</ele>
        <time>2017-02-18T10:00:25Z</time>
      </trkpt>
      <trkpt lat="48.68607" lon="1.88778">
        <ele>172.99639892578</ele>
        <time>2017-02-18T10:00:35Z</time>
      </trkpt>
      <trkpt lat="48.68609" lon="1.88753">
        <ele>175.39624023438</ele>
        <time>2017-02-18T10:00:59Z</time>
      </trkpt>
      <trkpt lat="48.68609" lon="1.88732">
        <ele>171.83624267578</ele>
        <time>2017-02-18T10:01:13Z</time>
      </trkpt>
      <trkpt lat="48.68606" lon="1.88707">
        <ele>178.46166992188</ele>
        <time>2017-02-18T10:01:18Z</time>
      </trkpt>
      <trkpt lat="48.68604" lon="1.88685">
        <ele>180.84362792969</ele>
        <time>2017-02-18T10:01:21Z</time>
      </trkpt>
      <trkpt lat="48.68602" lon="1.88649">
        <ele>183.21136474609</ele>
        <time>2017-02-18T10:01:26Z</time>
      </trkpt>
      <trkpt lat="48.68602" lon="1.88627">
        <ele>182.48754882812</ele>
        <time>2017-02-18T10:01:37Z</time>
      </trkpt>
      <trkpt lat="48.68599" lon="1.88607">
        <ele>182.72326660156</ele>
        <time>2017-02-18T10:01:47Z</time>
      </trkpt>
      <trkpt lat="48.68604" lon="1.88588">
        <ele>187.68188476562</ele>
        <time>2017-02-18T10:01:59Z</time>
      </trkpt>
      <trkpt lat="48.6861" lon="1.88567">
        <ele>186.70977783203</ele>
        <time>2017-02-18T10:02:10Z</time>
      </trkpt>
      <trkpt lat="48.68606" lon="1.88545">
        <ele>186.31951904297</ele>
        <time>2017-02-18T10:02:20Z</time>
      </trkpt>
      <trkpt lat="48.68603" lon="1.88523">
        <ele>184.68792724609</ele>
        <time>2017-02-18T10:02:28Z</time>
      </trkpt>
      <trkpt lat="48.68598" lon="1.88504">
        <ele>188.31616210938</ele>
        <time>2017-02-18T10:02:34Z</time>
      </trkpt>
      <trkpt lat="48.68591" lon="1.88485">
        <ele>183.150390625</ele>
        <time>2017-02-18T10:02:48Z</time>
      </trkpt>
      <trkpt lat="48.68584" lon="1.88465">
        <ele>176.44085693359</ele>
        <time>2017-02-18T10:03:00Z</time>
      </trkpt>
      <trkpt lat="48.68581" lon="1.88443">
        <ele>168.39666748047</ele>
        <time>2017-02-18T10:03:08Z</time>
      </trkpt>
      <trkpt lat="48.68572" lon="1.88423">
        <ele>168.42218017578</ele>
        <time>2017-02-18T10:03:15Z</time>
      </trkpt>
      <trkpt lat="48.68565" lon="1.88405">
        <ele>169.24078369141</ele>
        <time>2017-02-18T10:03:22Z</time>
      </trkpt>
      <trkpt lat="48.68557" lon="1.88387">
        <ele>171.33502197266</ele>
        <time>2017-02-18T10:03:31Z</time>
      </trkpt>
      <trkpt lat="48.68549" lon="1.88369">
        <ele>175.1484375</ele>
        <time>2017-02-18T10:03:39Z</time>
      </trkpt>
      <trkpt lat="48.6854" lon="1.88354">
        <ele>176.08551025391</ele>
        <time>2017-02-18T10:03:46Z</time>
      </trkpt>
      <trkpt lat="48.68538" lon="1.88334">
        <ele>174.51867675781</ele>
        <time>2017-02-18T10:04:02Z</time>
      </trkpt>
      <trkpt lat="48.68529" lon="1.88318">
        <ele>175.62042236328</ele>
        <time>2017-02-18T10:04:11Z</time>
      </trkpt>
      <trkpt lat="48.68523" lon="1.88299">
        <ele>178.48461914062</ele>
        <time>2017-02-18T10:04:23Z</time>
      </trkpt>
      <trkpt lat="48.68517" lon="1.88281">
        <ele>174.9404296875</ele>
        <time>2017-02-18T10:04:33Z</time>
      </trkpt>
      <trkpt lat="48.6851" lon="1.88262">
        <ele>179.103515625</ele>
        <time>2017-02-18T10:04:45Z</time>
      </trkpt>
      <trkpt lat="48.68505" lon="1.88241">
        <ele>177.26037597656</ele>
        <time>2017-02-18T10:04:55Z</time>
      </trkpt>
      <trkpt lat="48.68498" lon="1.88221">
        <ele>175.4189453125</ele>
        <time>2017-02-18T10:05:04Z</time>
      </trkpt>
      <trkpt lat="48.68491" lon="1.88202">
        <ele>177.97766113281</ele>
        <time>2017-02-18T10:05:14Z</time>
      </trkpt>
      <trkpt lat="48.68482" lon="1.88176">
        <ele>179.22967529297</ele>
        <time>2017-02-18T10:05:22Z</time>
      </trkpt>
      <trkpt lat="48.68476" lon="1.88155">
        <ele>175.46105957031</ele>
        <time>2017-02-18T10:05:29Z</time>
      </trkpt>
      <trkpt lat="48.68466" lon="1.88141">
        <ele>176.30889892578</ele>
        <time>2017-02-18T10:05:36Z</time>
      </trkpt>
      <trkpt lat="48.68461" lon="1.8812">
        <ele>173.39770507812</ele>
        <time>2017-02-18T10:05:47Z</time>
      </trkpt>
      <trkpt lat="48.68458" lon="1.88099">
        <ele>175.57116699219</ele>
        <time>2017-02-18T10:05:55Z</time>
      </trkpt>
      <trkpt lat="48.68449" lon="1.88082">
        <ele>177.31945800781</ele>
        <time>2017-02-18T10:06:09Z</time>
      </trkpt>
      <trkpt lat="48.68441" lon="1.88065">
        <ele>181.01416015625</ele>
        <time>2017-02-18T10:06:18Z</time>
      </trkpt>
      <trkpt lat="48.68431" lon="1.88051">
        <ele>183.90936279297</ele>
        <time>2017-02-18T10:06:23Z</time>
      </trkpt>
      <trkpt lat="48.68428" lon="1.88026">
        <ele>182.87548828125</ele>
        <time>2017-02-18T10:06:29Z</time>
      </trkpt>
      <trkpt lat="48.68424" lon="1.88005">
        <ele>175.15325927734</ele>
        <time>2017-02-18T10:06:48Z</time>
      </trkpt>
      <trkpt lat="48.68413" lon="1.87985">
        <ele>174.07318115234</ele>
        <time>2017-02-18T10:06:56Z</time>
      </trkpt>
      <trkpt lat="48.68405" lon="1.87968">
        <ele>172.40393066406</ele>
        <time>2017-02-18T10:07:02Z</time>
      </trkpt>
      <trkpt lat="48.68401" lon="1.87948">
        <ele>167.734375</ele>
        <time>2017-02-18T10:07:12Z</time>
      </trkpt>
      <trkpt lat="48.68396" lon="1.87928">
        <ele>163.68273925781</ele>
        <time>2017-02-18T10:07:25Z</time>
      </trkpt>
      <trkpt lat="48.68387" lon="1.87912">
        <ele>161.25219726562</ele>
        <time>2017-02-18T10:07:33Z</time>
      </trkpt>
      <trkpt lat="48.68381" lon="1.87891">
        <ele>160.4638671875</ele>
        <time>2017-02-18T10:07:43Z</time>
      </trkpt>
      <trkpt lat="48.68374" lon="1.87874">
        <ele>160.06188964844</ele>
        <time>2017-02-18T10:07:53Z</time>
      </trkpt>
      <trkpt lat="48.68368" lon="1.87854">
        <ele>161.77465820312</ele>
        <time>2017-02-18T10:08:04Z</time>
      </trkpt>
      <trkpt lat="48.6836" lon="1.87835">
        <ele>165.70416259766</ele>
        <time>2017-02-18T10:08:13Z</time>
      </trkpt>
      <trkpt lat="48.68352" lon="1.87817">
        <ele>166.33648681641</ele>
        <time>2017-02-18T10:08:22Z</time>
      </trkpt>
      <trkpt lat="48.68345" lon="1.87798">
        <ele>164.50610351562</ele>
        <time>2017-02-18T10:08:31Z</time>
      </trkpt>
      <trkpt lat="48.68341" lon="1.87777">
        <ele>154.54553222656</ele>
        <time>2017-02-18T10:08:41Z</time>
      </trkpt>
      <trkpt lat="48.6833" lon="1.87764">
        <ele>160.29821777344</ele>
        <time>2017-02-18T10:10:28Z</time>
      </trkpt>
      <trkpt lat="48.68323" lon="1.87743">
        <ele>160.03106689453</ele>
        <time>2017-02-18T10:10:37Z</time>
      </trkpt>
      <trkpt lat="48.68316" lon="1.87725">
        <ele>159.51068115234</ele>
        <time>2017-02-18T10:10:45Z</time>
      </trkpt>
      <trkpt lat="48.68309" lon="1.87706">
        <ele>156.15045166016</ele>
        <time>2017-02-18T10:10:56Z</time>
      </trkpt>
      <trkpt lat="48.68303" lon="1.87688">
        <ele>152.10198974609</ele>
        <time>2017-02-18T10:11:06Z</time>
      </trkpt>
      <trkpt lat="48.68296" lon="1.87669">
        <ele>149.78979492188</ele>
        <time>2017-02-18T10:11:15Z</time>
      </trkpt>
      <trkpt lat="48.68288" lon="1.8765">
        <ele>151.2314453125</ele>
        <time>2017-02-18T10:11:26Z</time>
      </trkpt>
      <trkpt lat="48.68281" lon="1.87631">
        <ele>148.970703125</ele>
        <time>2017-02-18T10:11:35Z</time>
      </trkpt>
      <trkpt lat="48.68274" lon="1.87613">
        <ele>148.35229492188</ele>
        <time>2017-02-18T10:11:42Z</time>
      </trkpt>
      <trkpt lat="48.68267" lon="1.87594">
        <ele>151.26007080078</ele>
        <time>2017-02-18T10:11:53Z</time>
      </trkpt>
      <trkpt lat="48.68265" lon="1.87574">
        <ele>144.94470214844</ele>
        <time>2017-02-18T10:12:03Z</time>
      </trkpt>
      <trkpt lat="48.68257" lon="1.87555">
        <ele>147.51055908203</ele>
        <time>2017-02-18T10:12:11Z</time>
      </trkpt>
      <trkpt lat="48.68247" lon="1.87531">
        <ele>156.73413085938</ele>
        <time>2017-02-18T10:12:20Z</time>
      </trkpt>
      <trkpt lat="48.68238" lon="1.87514">
        <ele>159.93157958984</ele>
        <time>2017-02-18T10:12:30Z</time>
      </trkpt>
      <trkpt lat="48.68232" lon="1.87494">
        <ele>156.42053222656</ele>
        <time>2017-02-18T10:12:38Z</time>
      </trkpt>
      <trkpt lat="48.68224" lon="1.87477">
        <ele>159.64288330078</ele>
        <time>2017-02-18T10:12:46Z</time>
      </trkpt>
      <trkpt lat="48.68216" lon="1.8746">
        <ele>160.14459228516</ele>
        <time>2017-02-18T10:12:55Z</time>
      </trkpt>
      <trkpt lat="48.6821" lon="1.87439">
        <ele>163.49792480469</ele>
        <time>2017-02-18T10:13:03Z</time>
      </trkpt>
      <trkpt lat="48.68205" lon="1.87419">
        <ele>162.72076416016</ele>
        <time>2017-02-18T10:13:11Z</time>
      </trkpt>
      <trkpt lat="48.68197" lon="1.874">
        <ele>159.36029052734</ele>
        <time>2017-02-18T10:13:19Z</time>
      </trkpt>
      <trkpt lat="48.68192" lon="1.87381">
        <ele>153.83508300781</ele>
        <time>2017-02-18T10:13:31Z</time>
      </trkpt>
      <trkpt lat="48.68184" lon="1.87364">
        <ele>158.66705322266</ele>
        <time>2017-02-18T10:13:45Z</time>
      </trkpt>
      <trkpt lat="48.68178" lon="1.87344">
        <ele>156.31066894531</ele>
        <time>2017-02-18T10:13:54Z</time>
      </trkpt>
      <trkpt lat="48.68169" lon="1.87326">
        <ele>157.66027832031</ele>
        <time>2017-02-18T10:14:03Z</time>
      </trkpt>
      <trkpt lat="48.68161" lon="1.87308">
        <ele>152.634765625</ele>
        <time>2017-02-18T10:14:15Z</time>
      </trkpt>
      <trkpt lat="48.68154" lon="1.87289">
        <ele>151.76922607422</ele>
        <time>2017-02-18T10:14:25Z</time>
      </trkpt>
      <trkpt lat="48.68149" lon="1.8727">
        <ele>152.15014648438</ele>
        <time>2017-02-18T10:14:34Z</time>
      </trkpt>
      <trkpt lat="48.68143" lon="1.87251">
        <ele>152.2060546875</ele>
        <time>2017-02-18T10:14:41Z</time>
      </trkpt>
      <trkpt lat="48.68136" lon="1.87232">
        <ele>152.05627441406</ele>
        <time>2017-02-18T10:14:52Z</time>
      </trkpt>
      <trkpt lat="48.6813" lon="1.87213">
        <ele>155.02655029297</ele>
        <time>2017-02-18T10:15:00Z</time>
      </trkpt>
      <trkpt lat="48.68124" lon="1.87193">
        <ele>154.63140869141</ele>
        <time>2017-02-18T10:15:13Z</time>
      </trkpt>
      <trkpt lat="48.68111" lon="1.87171">
        <ele>160.84167480469</ele>
        <time>2017-02-18T10:15:19Z</time>
      </trkpt>
      <trkpt lat="48.68107" lon="1.87149">
        <ele>161.23010253906</ele>
        <time>2017-02-18T10:15:32Z</time>
      </trkpt>
      <trkpt lat="48.68101" lon="1.8713">
        <ele>159.02264404297</ele>
        <time>2017-02-18T10:15:41Z</time>
      </trkpt>
      <trkpt lat="48.68093" lon="1.87113">
        <ele>164.796875</ele>
        <time>2017-02-18T10:15:52Z</time>
      </trkpt>
      <trkpt lat="48.68085" lon="1.87095">
        <ele>162.59686279297</ele>
        <time>2017-02-18T10:16:03Z</time>
      </trkpt>
      <trkpt lat="48.68085" lon="1.87074">
        <ele>165.72045898438</ele>
        <time>2017-02-18T10:16:15Z</time>
      </trkpt>
      <trkpt lat="48.68096" lon="1.87062">
        <ele>161.53942871094</ele>
        <time>2017-02-18T10:16:33Z</time>
      </trkpt>
      <trkpt lat="48.6811" lon="1.87055">
        <ele>161.47119140625</ele>
        <time>2017-02-18T10:16:43Z</time>
      </trkpt>
      <trkpt lat="48.68124" lon="1.87054">
        <ele>161.42974853516</ele>
        <time>2017-02-18T10:16:52Z</time>
      </trkpt>
      <trkpt lat="48.68136" lon="1.87042">
        <ele>166.20184326172</ele>
        <time>2017-02-18T10:17:03Z</time>
      </trkpt>
      <trkpt lat="48.68151" lon="1.87037">
        <ele>164.09094238281</ele>
        <time>2017-02-18T10:17:09Z</time>
      </trkpt>
      <trkpt lat="48.68164" lon="1.87039">
        <ele>167.0810546875</ele>
        <time>2017-02-18T10:17:17Z</time>
      </trkpt>
      <trkpt lat="48.68179" lon="1.87032">
        <ele>168.84356689453</ele>
        <time>2017-02-18T10:17:28Z</time>
      </trkpt>
      <trkpt lat="48.68192" lon="1.87026">
        <ele>172.13067626953</ele>
        <time>2017-02-18T10:17:35Z</time>
      </trkpt>
      <trkpt lat="48.68205" lon="1.8702">
        <ele>170.53393554688</ele>
        <time>2017-02-18T10:17:43Z</time>
      </trkpt>
      <trkpt lat="48.68219" lon="1.87014">
        <ele>170.21313476562</ele>
        <time>2017-02-18T10:17:53Z</time>
      </trkpt>
      <trkpt lat="48.68233" lon="1.87013">
        <ele>168.77087402344</ele>
        <time>2017-02-18T10:18:01Z</time>
      </trkpt>
      <trkpt lat="48.68246" lon="1.87001">
        <ele>159.66229248047</ele>
        <time>2017-02-18T10:18:17Z</time>
      </trkpt>
      <trkpt lat="48.6826" lon="1.87001">
        <ele>158.703125</ele>
        <time>2017-02-18T10:18:23Z</time>
      </trkpt>
      <trkpt lat="48.68274" lon="1.86997">
        <ele>157.38012695312</ele>
        <time>2017-02-18T10:18:35Z</time>
      </trkpt>
      <trkpt lat="48.68288" lon="1.86991">
        <ele>152.59350585938</ele>
        <time>2017-02-18T10:18:45Z</time>
      </trkpt>
      <trkpt lat="48.68301" lon="1.86985">
        <ele>158.74353027344</ele>
        <time>2017-02-18T10:18:54Z</time>
      </trkpt>
      <trkpt lat="48.68318" lon="1.8699">
        <ele>160.56262207031</ele>
        <time>2017-02-18T10:18:58Z</time>
      </trkpt>
      <trkpt lat="48.68333" lon="1.86987">
        <ele>162.98577880859</ele>
        <time>2017-02-18T10:19:10Z</time>
      </trkpt>
      <trkpt lat="48.68348" lon="1.86978">
        <ele>159.30822753906</ele>
        <time>2017-02-18T10:19:24Z</time>
      </trkpt>
      <trkpt lat="48.68362" lon="1.86977">
        <ele>155.71264648438</ele>
        <time>2017-02-18T10:19:34Z</time>
      </trkpt>
      <trkpt lat="48.68376" lon="1.86968">
        <ele>158.5537109375</ele>
        <time>2017-02-18T10:19:44Z</time>
      </trkpt>
      <trkpt lat="48.6839" lon="1.86963">
        <ele>160.24200439453</ele>
        <time>2017-02-18T10:19:52Z</time>
      </trkpt>
      <trkpt lat="48.68404" lon="1.86963">
        <ele>161.95886230469</ele>
        <time>2017-02-18T10:20:00Z</time>
      </trkpt>
      <trkpt lat="48.68417" lon="1.86958">
        <ele>167.57025146484</ele>
        <time>2017-02-18T10:20:09Z</time>
      </trkpt>
      <trkpt lat="48.6843" lon="1.86949">
        <ele>170.74279785156</ele>
        <time>2017-02-18T10:20:20Z</time>
      </trkpt>
      <trkpt lat="48.68443" lon="1.86942">
        <ele>173.2373046875</ele>
        <time>2017-02-18T10:20:29Z</time>
      </trkpt>
      <trkpt lat="48.68458" lon="1.86938">
        <ele>174.04888916016</ele>
        <time>2017-02-18T10:20:37Z</time>
      </trkpt>
      <trkpt lat="48.68471" lon="1.86933">
        <ele>176.25671386719</ele>
        <time>2017-02-18T10:20:45Z</time>
      </trkpt>
      <trkpt lat="48.68485" lon="1.8693">
        <ele>177.63836669922</ele>
        <time>2017-02-18T10:20:54Z</time>
      </trkpt>
      <trkpt lat="48.68499" lon="1.86923">
        <ele>176.47290039062</ele>
        <time>2017-02-18T10:21:04Z</time>
      </trkpt>
      <trkpt lat="48.68513" lon="1.86917">
        <ele>171.08471679688</ele>
        <time>2017-02-18T10:21:13Z</time>
      </trkpt>
      <trkpt lat="48.68528" lon="1.86914">
        <ele>174.50073242188</ele>
        <time>2017-02-18T10:21:23Z</time>
      </trkpt>
      <trkpt lat="48.68543" lon="1.86913">
        <ele>177.97668457031</ele>
        <time>2017-02-18T10:21:31Z</time>
      </trkpt>
      <trkpt lat="48.68557" lon="1.86907">
        <ele>176.2431640625</ele>
        <time>2017-02-18T10:21:40Z</time>
      </trkpt>
      <trkpt lat="48.68573" lon="1.86906">
        <ele>172.96215820312</ele>
        <time>2017-02-18T10:21:49Z</time>
      </trkpt>
      <trkpt lat="48.68587" lon="1.86902">
        <ele>168.14947509766</ele>
        <time>2017-02-18T10:21:56Z</time>
      </trkpt>
      <trkpt lat="48.68601" lon="1.86899">
        <ele>166.48785400391</ele>
        <time>2017-02-18T10:22:04Z</time>
      </trkpt>
      <trkpt lat="48.68615" lon="1.86895">
        <ele>172.35040283203</ele>
        <time>2017-02-18T10:22:15Z</time>
      </trkpt>
      <trkpt lat="48.68629" lon="1.86888">
        <ele>160.43469238281</ele>
        <time>2017-02-18T10:22:24Z</time>
      </trkpt>
      <trkpt lat="48.68643" lon="1.86887">
        <ele>161.94482421875</ele>
        <time>2017-02-18T10:22:32Z</time>
      </trkpt>
      <trkpt lat="48.68656" lon="1.86881">
        <ele>168.52337646484</ele>
        <time>2017-02-18T10:22:44Z</time>
      </trkpt>
      <trkpt lat="48.68669" lon="1.86868">
        <ele>160.93206787109</ele>
        <time>2017-02-18T10:22:54Z</time>
      </trkpt>
      <trkpt lat="48.68683" lon="1.86865">
        <ele>162.97229003906</ele>
        <time>2017-02-18T10:22:58Z</time>
      </trkpt>
      <trkpt lat="48.68696" lon="1.86857">
        <ele>163.48767089844</ele>
        <time>2017-02-18T10:25:15Z</time>
      </trkpt>
      <trkpt lat="48.68705" lon="1.86839">
        <ele>158.39672851562</ele>
        <time>2017-02-18T10:25:19Z</time>
      </trkpt>
      <trkpt lat="48.68715" lon="1.8681">
        <ele>163.05517578125</ele>
        <time>2017-02-18T10:25:24Z</time>
      </trkpt>
      <trkpt lat="48.68715" lon="1.86786">
        <ele>164.0361328125</ele>
        <time>2017-02-18T10:25:30Z</time>
      </trkpt>
      <trkpt lat="48.68717" lon="1.86765">
        <ele>163.82263183594</ele>
        <time>2017-02-18T10:25:38Z</time>
      </trkpt>
      <trkpt lat="48.68725" lon="1.86748">
        <ele>163.36102294922</ele>
        <time>2017-02-18T10:25:51Z</time>
      </trkpt>
      <trkpt lat="48.68736" lon="1.86736">
        <ele>160.36547851562</ele>
        <time>2017-02-18T10:25:58Z</time>
      </trkpt>
      <trkpt lat="48.68743" lon="1.86714">
        <ele>157.27624511719</ele>
        <time>2017-02-18T10:26:04Z</time>
      </trkpt>
      <trkpt lat="48.68737" lon="1.86689">
        <ele>156.42596435547</ele>
        <time>2017-02-18T10:26:11Z</time>
      </trkpt>
      <trkpt lat="48.6874" lon="1.86668">
        <ele>160.08288574219</ele>
        <time>2017-02-18T10:26:23Z</time>
      </trkpt>
      <trkpt lat="48.68746" lon="1.86649">
        <ele>161.87640380859</ele>
        <time>2017-02-18T10:26:34Z</time>
      </trkpt>
      <trkpt lat="48.68756" lon="1.86629">
        <ele>162.05303955078</ele>
        <time>2017-02-18T10:26:40Z</time>
      </trkpt>
      <trkpt lat="48.6875" lon="1.8661">
        <ele>160.48626708984</ele>
        <time>2017-02-18T10:26:45Z</time>
      </trkpt>
      <trkpt lat="48.68757" lon="1.86592">
        <ele>157.21276855469</ele>
        <time>2017-02-18T10:26:56Z</time>
      </trkpt>
      <trkpt lat="48.68768" lon="1.8658">
        <ele>157.44403076172</ele>
        <time>2017-02-18T10:27:03Z</time>
      </trkpt>
      <trkpt lat="48.68778" lon="1.86562">
        <ele>157.54815673828</ele>
        <time>2017-02-18T10:27:15Z</time>
      </trkpt>
      <trkpt lat="48.68783" lon="1.86541">
        <ele>157.74011230469</ele>
        <time>2017-02-18T10:27:22Z</time>
      </trkpt>
      <trkpt lat="48.68786" lon="1.86521">
        <ele>157.29553222656</ele>
        <time>2017-02-18T10:27:29Z</time>
      </trkpt>
      <trkpt lat="48.688" lon="1.86503">
        <ele>153.77563476562</ele>
        <time>2017-02-18T10:27:46Z</time>
      </trkpt>
      <trkpt lat="48.6881" lon="1.86484">
        <ele>150.97772216797</ele>
        <time>2017-02-18T10:27:53Z</time>
      </trkpt>
      <trkpt lat="48.68819" lon="1.86466">
        <ele>153.15106201172</ele>
        <time>2017-02-18T10:28:02Z</time>
      </trkpt>
      <trkpt lat="48.68829" lon="1.86447">
        <ele>153.16229248047</ele>
        <time>2017-02-18T10:28:15Z</time>
      </trkpt>
      <trkpt lat="48.6884" lon="1.86431">
        <ele>154.31353759766</ele>
        <time>2017-02-18T10:28:24Z</time>
      </trkpt>
      <trkpt lat="48.68849" lon="1.86414">
        <ele>156.17175292969</ele>
        <time>2017-02-18T10:28:34Z</time>
      </trkpt>
      <trkpt lat="48.68859" lon="1.86401">
        <ele>156.82391357422</ele>
        <time>2017-02-18T10:28:42Z</time>
      </trkpt>
      <trkpt lat="48.68872" lon="1.86388">
        <ele>151.32830810547</ele>
        <time>2017-02-18T10:28:50Z</time>
      </trkpt>
      <trkpt lat="48.68885" lon="1.8638">
        <ele>149.33190917969</ele>
        <time>2017-02-18T10:29:01Z</time>
      </trkpt>
      <trkpt lat="48.68897" lon="1.8637">
        <ele>155.501953125</ele>
        <time>2017-02-18T10:29:13Z</time>
      </trkpt>
      <trkpt lat="48.68908" lon="1.86357">
        <ele>150.33526611328</ele>
        <time>2017-02-18T10:29:23Z</time>
      </trkpt>
      <trkpt lat="48.6892" lon="1.86347">
        <ele>151.06207275391</ele>
        <time>2017-02-18T10:29:32Z</time>
      </trkpt>
      <trkpt lat="48.68927" lon="1.86327">
        <ele>161.81762695312</ele>
        <time>2017-02-18T10:30:05Z</time>
      </trkpt>
      <trkpt lat="48.68935" lon="1.86309">
        <ele>156.48156738281</ele>
        <time>2017-02-18T10:30:11Z</time>
      </trkpt>
      <trkpt lat="48.68941" lon="1.86289">
        <ele>158.36590576172</ele>
        <time>2017-02-18T10:30:19Z</time>
      </trkpt>
      <trkpt lat="48.68948" lon="1.86271">
        <ele>163.72924804688</ele>
        <time>2017-02-18T10:30:27Z</time>
      </trkpt>
      <trkpt lat="48.68954" lon="1.8625">
        <ele>163.21606445312</ele>
        <time>2017-02-18T10:30:35Z</time>
      </trkpt>
      <trkpt lat="48.68959" lon="1.8623">
        <ele>164.59600830078</ele>
        <time>2017-02-18T10:30:45Z</time>
      </trkpt>
      <trkpt lat="48.68964" lon="1.8621">
        <ele>164.80474853516</ele>
        <time>2017-02-18T10:30:55Z</time>
      </trkpt>
      <trkpt lat="48.68968" lon="1.8619">
        <ele>164.69085693359</ele>
        <time>2017-02-18T10:31:05Z</time>
      </trkpt>
      <trkpt lat="48.68968" lon="1.86169">
        <ele>165.18872070312</ele>
        <time>2017-02-18T10:31:15Z</time>
      </trkpt>
      <trkpt lat="48.68967" lon="1.86149">
        <ele>159.48937988281</ele>
        <time>2017-02-18T10:31:22Z</time>
      </trkpt>
      <trkpt lat="48.68973" lon="1.86131">
        <ele>159.10003662109</ele>
        <time>2017-02-18T10:31:27Z</time>
      </trkpt>
      <trkpt lat="48.68977" lon="1.86111">
        <ele>161.72027587891</ele>
        <time>2017-02-18T10:31:40Z</time>
      </trkpt>
      <trkpt lat="48.68977" lon="1.86089">
        <ele>164.99194335938</ele>
        <time>2017-02-18T10:31:50Z</time>
      </trkpt>
      <trkpt lat="48.68978" lon="1.86068">
        <ele>165.54260253906</ele>
        <time>2017-02-18T10:31:59Z</time>
      </trkpt>
      <trkpt lat="48.68981" lon="1.86047">
        <ele>162.62042236328</ele>
        <time>2017-02-18T10:32:09Z</time>
      </trkpt>
      <trkpt lat="48.68983" lon="1.86027">
        <ele>160.90765380859</ele>
        <time>2017-02-18T10:32:18Z</time>
      </trkpt>
      <trkpt lat="48.68985" lon="1.86005">
        <ele>159.33404541016</ele>
        <time>2017-02-18T10:32:27Z</time>
      </trkpt>
      <trkpt lat="48.68991" lon="1.85985">
        <ele>157.78442382812</ele>
        <time>2017-02-18T10:32:37Z</time>
      </trkpt>
      <trkpt lat="48.68996" lon="1.85964">
        <ele>166.02752685547</ele>
        <time>2017-02-18T10:32:45Z</time>
      </trkpt>
      <trkpt lat="48.69" lon="1.85944">
        <ele>169.55462646484</ele>
        <time>2017-02-18T10:32:52Z</time>
      </trkpt>
      <trkpt lat="48.69" lon="1.85922">
        <ele>161.95532226562</ele>
        <time>2017-02-18T10:33:00Z</time>
      </trkpt>
      <trkpt lat="48.68997" lon="1.85901">
        <ele>158.60009765625</ele>
        <time>2017-02-18T10:33:13Z</time>
      </trkpt>
      <trkpt lat="48.69003" lon="1.85882">
        <ele>159.93865966797</ele>
        <time>2017-02-18T10:33:22Z</time>
      </trkpt>
      <trkpt lat="48.69006" lon="1.85861">
        <ele>161.16680908203</ele>
        <time>2017-02-18T10:33:33Z</time>
      </trkpt>
      <trkpt lat="48.69011" lon="1.85841">
        <ele>163.48840332031</ele>
        <time>2017-02-18T10:33:44Z</time>
      </trkpt>
      <trkpt lat="48.69013" lon="1.8582">
        <ele>166.58740234375</ele>
        <time>2017-02-18T10:33:55Z</time>
      </trkpt>
      <trkpt lat="48.69016" lon="1.85798">
        <ele>165.35577392578</ele>
        <time>2017-02-18T10:34:05Z</time>
      </trkpt>
      <trkpt lat="48.69022" lon="1.85777">
        <ele>165.59881591797</ele>
        <time>2017-02-18T10:34:13Z</time>
      </trkpt>
      <trkpt lat="48.69024" lon="1.85754">
        <ele>165.76159667969</ele>
        <time>2017-02-18T10:34:23Z</time>
      </trkpt>
      <trkpt lat="48.69028" lon="1.85734">
        <ele>166.07415771484</ele>
        <time>2017-02-18T10:34:34Z</time>
      </trkpt>
      <trkpt lat="48.69028" lon="1.85712">
        <ele>165.9375</ele>
        <time>2017-02-18T10:34:44Z</time>
      </trkpt>
      <trkpt lat="48.69033" lon="1.8569">
        <ele>160.32751464844</ele>
        <time>2017-02-18T10:34:52Z</time>
      </trkpt>
      <trkpt lat="48.69043" lon="1.85675">
        <ele>160.1943359375</ele>
        <time>2017-02-18T10:35:00Z</time>
      </trkpt>
      <trkpt lat="48.69043" lon="1.85647">
        <ele>166.75592041016</ele>
        <time>2017-02-18T10:35:24Z</time>
      </trkpt>
      <trkpt lat="48.69044" lon="1.85626">
        <ele>171.44451904297</ele>
        <time>2017-02-18T10:35:29Z</time>
      </trkpt>
      <trkpt lat="48.69048" lon="1.85606">
        <ele>173.31646728516</ele>
        <time>2017-02-18T10:35:35Z</time>
      </trkpt>
      <trkpt lat="48.69055" lon="1.85587">
        <ele>173.373046875</ele>
        <time>2017-02-18T10:35:43Z</time>
      </trkpt>
      <trkpt lat="48.69059" lon="1.85567">
        <ele>170.70013427734</ele>
        <time>2017-02-18T10:35:52Z</time>
      </trkpt>
      <trkpt lat="48.69061" lon="1.85546">
        <ele>167.11120605469</ele>
        <time>2017-02-18T10:36:06Z</time>
      </trkpt>
      <trkpt lat="48.69065" lon="1.85525">
        <ele>168.43072509766</ele>
        <time>2017-02-18T10:36:17Z</time>
      </trkpt>
      <trkpt lat="48.6907" lon="1.85504">
        <ele>168.54058837891</ele>
        <time>2017-02-18T10:36:27Z</time>
      </trkpt>
      <trkpt lat="48.69073" lon="1.85484">
        <ele>168.75476074219</ele>
        <time>2017-02-18T10:36:36Z</time>
      </trkpt>
      <trkpt lat="48.69072" lon="1.85462">
        <ele>173.70141601562</ele>
        <time>2017-02-18T10:36:46Z</time>
      </trkpt>
      <trkpt lat="48.69068" lon="1.85441">
        <ele>174.91442871094</ele>
        <time>2017-02-18T10:36:54Z</time>
      </trkpt>
      <trkpt lat="48.69074" lon="1.85421">
        <ele>171.16009521484</ele>
        <time>2017-02-18T10:37:05Z</time>
      </trkpt>
      <trkpt lat="48.69074" lon="1.85399">
        <ele>167.22546386719</ele>
        <time>2017-02-18T10:37:14Z</time>
      </trkpt>
      <trkpt lat="48.69074" lon="1.85378">
        <ele>164.09869384766</ele>
        <time>2017-02-18T10:37:22Z</time>
      </trkpt>
      <trkpt lat="48.69076" lon="1.85358">
        <ele>161.12341308594</ele>
        <time>2017-02-18T10:37:31Z</time>
      </trkpt>
      <trkpt lat="48.69076" lon="1.85383">
        <ele>169.16790771484</ele>
        <time>2017-02-18T10:37:53Z</time>
      </trkpt>
      <trkpt lat="48.69072" lon="1.85403">
        <ele>170.07440185547</ele>
        <time>2017-02-18T10:38:01Z</time>
      </trkpt>
      <trkpt lat="48.69083" lon="1.85417">
        <ele>172.84332275391</ele>
        <time>2017-02-18T10:38:10Z</time>
      </trkpt>
      <trkpt lat="48.69095" lon="1.8543">
        <ele>177.78491210938</ele>
        <time>2017-02-18T10:38:24Z</time>
      </trkpt>
      <trkpt lat="48.69109" lon="1.85434">
        <ele>173.33203125</ele>
        <time>2017-02-18T10:38:31Z</time>
      </trkpt>
      <trkpt lat="48.69123" lon="1.85428">
        <ele>168.53765869141</ele>
        <time>2017-02-18T10:38:43Z</time>
      </trkpt>
      <trkpt lat="48.69132" lon="1.8541">
        <ele>165.95092773438</ele>
        <time>2017-02-18T10:38:52Z</time>
      </trkpt>
      <trkpt lat="48.69146" lon="1.85416">
        <ele>173.25573730469</ele>
        <time>2017-02-18T10:39:19Z</time>
      </trkpt>
      <trkpt lat="48.69154" lon="1.85419">
        <ele>177.30163574219</ele>
        <time>2017-02-18T10:39:26Z</time>
      </trkpt>
    </trkseg>
  </trk>
</gpx>